Darstellungsparameter: Aktuell verwendete Einstellungen:
Skalierung der Graphiken ... ?
xyx+y,   Skalierungsfaktor:      Skalierung: Modus: x, Faktor: 1
Darstellungszeitraum ... ?
Vom - - bis: - -   Zeitraum: 25.05.2015 - 29.05.2015
Min/Max/Avg-Anzeige ... ?
Zeige MMA aktuell
Zeige MMA Monat
Zeige MMA alles
Zeige --A aktuell
Zeige --A Monat
Zeige --A alles
Keine MMA-Anzeige
MMA:
Average (ber die Originaldaten)
MMA-Basis: 25.05.2015 - 29.05.2015
Quicknavigation für Darstellung... ?
Tage:      1T, 2T, 3T, 5T -1T -2T -3T -5T +1T +2T +3T +5T
Wochen: 1W, 2W, 3W -1W -2W -3W +1W +2W +3W
Monate: 1M, 3M, 6M -1M -3M -6M +1M +3M +6M
Jahre:    1J, 3J, 5J, 10J -1J -3J -5J -10J +1J +3J +5J +10J
Nutze für die Darstellung ... ?
Originaldaten oder Mittelwerte auf ...
Stundenbasis Tagesbasis Wochenbasis
Monatsbasis Jahresbasis      Datenbasis: Original-Daten
Darstellen als:
Statistik (Auto) Statistik J:M      Darstellung:
Zur Graphik,    zurück zur Übersicht aller Sensoren.
 
Tabellarische Datenbersicht: ?
 
Sensor: Nr:Datum:Temp:Abs-Feuchte:Windchill:Wind:
Aussen-T/F 1 25-05-2015 00:00:00 14.3 C 11.55 g/m*3 14.3 C 0 km/h
2 25-05-2015 00:05:00 14.3 C 11.55 g/m*3 14.3 C 0 km/h
3 25-05-2015 00:10:00 14.3 C 11.55 g/m*3 14.3 C 0 km/h
4 25-05-2015 00:15:00 14.2 C 11.6 g/m*3 14.2 C 0 km/h
5 25-05-2015 00:20:00 14.1 C 11.41 g/m*3 14.1 C 0 km/h
6 25-05-2015 00:25:00 13.9 C 11.27 g/m*3 13.9 C 0 km/h
7 25-05-2015 00:30:00 13.9 C 11.27 g/m*3 13.9 C 0 km/h
8 25-05-2015 00:35:00 13.8 C 11.2 g/m*3 13.8 C 0 km/h
9 25-05-2015 00:40:00 13.7 C 11.13 g/m*3 13.7 C 0 km/h
10 25-05-2015 00:45:00 13.5 C 10.99 g/m*3 13.5 C 0 km/h
11 25-05-2015 00:50:00 13.4 C 10.93 g/m*3 13.4 C 1.6 km/h
12 25-05-2015 00:55:00 13.3 C 10.86 g/m*3 13.3 C 0 km/h
13 25-05-2015 01:00:00 13.3 C 10.98 g/m*3 13.3 C 1.6 km/h
14 25-05-2015 01:05:00 13.3 C 10.98 g/m*3 13.3 C 1.6 km/h
15 25-05-2015 01:10:00 13.3 C 10.98 g/m*3 13.3 C 0 km/h
16 25-05-2015 01:15:00 13.3 C 10.98 g/m*3 13.3 C 1.6 km/h
17 25-05-2015 01:20:00 13.3 C 10.98 g/m*3 13.3 C 0 km/h
18 25-05-2015 01:25:00 13.1 C 10.84 g/m*3 13.1 C 0 km/h
19 25-05-2015 01:30:00 13.1 C 10.84 g/m*3 13.1 C 0 km/h
20 25-05-2015 01:35:00 13 C 10.77 g/m*3 13 C 0 km/h
21 25-05-2015 01:40:00 13 C 10.77 g/m*3 13 C 0 km/h
22 25-05-2015 01:45:00 13 C 10.77 g/m*3 13 C 0 km/h
23 25-05-2015 01:50:00 13 C 10.77 g/m*3 13 C 0 km/h
24 25-05-2015 01:55:00 12.8 C 10.64 g/m*3 12.8 C 0 km/h
25 25-05-2015 02:00:00 12.8 C 10.64 g/m*3 12.8 C 0 km/h
Sensor: Nr:Datum:Temp:Abs-Feuchte:Windchill:Wind:
Aussen-T/F 26 25-05-2015 02:05:00 12.8 C 10.64 g/m*3 12.8 C 0 km/h
27 25-05-2015 02:10:00 12.7 C 10.58 g/m*3 12.7 C 0 km/h
28 25-05-2015 02:15:00 12.7 C 10.58 g/m*3 12.7 C 0 km/h
29 25-05-2015 02:20:00 12.6 C 10.51 g/m*3 12.6 C 0 km/h
30 25-05-2015 02:25:00 12.4 C 10.38 g/m*3 12.4 C 0 km/h
31 25-05-2015 02:30:00 12.4 C 10.38 g/m*3 12.4 C 0 km/h
32 25-05-2015 02:35:00 12.3 C 10.32 g/m*3 12.3 C 0 km/h
33 25-05-2015 02:40:00 12.2 C 10.25 g/m*3 12.2 C 0 km/h
34 25-05-2015 02:45:00 12.2 C 10.25 g/m*3 12.2 C 3.2 km/h
35 25-05-2015 02:50:00 12.2 C 10.25 g/m*3 12.2 C 3.2 km/h
36 25-05-2015 02:55:00 12.4 C 10.49 g/m*3 12.4 C 0 km/h
37 25-05-2015 03:00:00 12.4 C 10.49 g/m*3 12.4 C 0 km/h
38 25-05-2015 03:05:00 12.1 C 10.19 g/m*3 12.1 C 0 km/h
39 25-05-2015 03:10:00 12.1 C 10.19 g/m*3 12.1 C 1.6 km/h
40 25-05-2015 03:15:00 11.9 C 10.06 g/m*3 11.9 C 0 km/h
41 25-05-2015 03:20:00 11.8 C 10 g/m*3 11.8 C 1.6 km/h
42 25-05-2015 03:25:00 11.7 C 9.94 g/m*3 11.7 C 1.6 km/h
43 25-05-2015 03:30:00 11.6 C 9.87 g/m*3 11.6 C 0 km/h
44 25-05-2015 03:35:00 11.4 C 9.75 g/m*3 11.4 C 1.6 km/h
45 25-05-2015 03:40:00 11.3 C 9.69 g/m*3 11.3 C 0 km/h
46 25-05-2015 03:45:00 11.2 C 9.63 g/m*3 11.2 C 1.6 km/h
47 25-05-2015 03:50:00 11 C 9.51 g/m*3 11 C 0 km/h
48 25-05-2015 03:55:00 10.9 C 9.45 g/m*3 10.9 C 1.6 km/h
49 25-05-2015 04:00:00 10.8 C 9.39 g/m*3 10.8 C 0 km/h
50 25-05-2015 04:05:00 10.8 C 9.39 g/m*3 10.8 C 1.6 km/h
Sensor: Nr:Datum:Temp:Abs-Feuchte:Windchill:Wind:
Aussen-T/F 51 25-05-2015 04:10:00 10.7 C 9.33 g/m*3 10.7 C 1.6 km/h
52 25-05-2015 04:15:00 10.7 C 9.33 g/m*3 10.7 C 0 km/h
53 25-05-2015 04:20:00 10.6 C 9.27 g/m*3 10.6 C 0 km/h
54 25-05-2015 04:25:00 10.6 C 9.27 g/m*3 10.6 C 1.6 km/h
55 25-05-2015 04:30:00 10.4 C 9.16 g/m*3 10.4 C 1.6 km/h
56 25-05-2015 04:35:00 10.4 C 9.16 g/m*3 10.4 C 0 km/h
57 25-05-2015 04:40:00 10.3 C 9.1 g/m*3 10.3 C 0 km/h
58 25-05-2015 04:45:00 10.2 C 9.04 g/m*3 10.2 C 0 km/h
59 25-05-2015 04:50:00 10.2 C 9.04 g/m*3 10.2 C 0 km/h
60 25-05-2015 04:55:00 10.2 C 9.04 g/m*3 10.2 C 1.6 km/h
61 25-05-2015 10:45:00 15.1 C 9.68 g/m*3 15.1 C 1.6 km/h
62 25-05-2015 10:50:00 15.1 C 9.93 g/m*3 15.1 C 0 km/h
63 25-05-2015 10:55:00 15.1 C 10.06 g/m*3 15.1 C 0 km/h
64 25-05-2015 11:00:00 15.1 C 10.19 g/m*3 15.1 C 0 km/h
65 25-05-2015 11:05:00 15.1 C 9.93 g/m*3 15.1 C 0 km/h
66 25-05-2015 11:10:00 15.2 C 10.12 g/m*3 15.2 C 1.6 km/h
67 25-05-2015 11:15:00 15.2 C 9.99 g/m*3 15.2 C 1.6 km/h
68 25-05-2015 11:20:00 15.3 C 10.32 g/m*3 15.3 C 0 km/h
69 25-05-2015 11:25:00 15.4 C 10.25 g/m*3 15.4 C 1.6 km/h
70 25-05-2015 11:30:00 15.5 C 10.18 g/m*3 15.5 C 4.8 km/h
71 25-05-2015 11:35:00 15.5 C 10.05 g/m*3 15.5 C 4.8 km/h
72 25-05-2015 11:40:00 15.4 C 9.99 g/m*3 15.4 C 3.2 km/h
73 25-05-2015 11:45:00 15.5 C 10.05 g/m*3 15.5 C 4.8 km/h
74 25-05-2015 11:50:00 15.4 C 9.59 g/m*3 15.4 C 9.7 km/h
75 25-05-2015 11:55:00 15.2 C 9.09 g/m*3 15.2 C 8.1 km/h
Sensor: Nr:Datum:Temp:Abs-Feuchte:Windchill:Wind:
Aussen-T/F 76 25-05-2015 12:00:00 15.1 C 9.42 g/m*3 15.1 C 6.4 km/h
77 25-05-2015 12:05:00 14.8 C 9.63 g/m*3 14.8 C 9.7 km/h
78 25-05-2015 12:10:00 14.7 C 9.95 g/m*3 14.7 C 8.1 km/h
79 25-05-2015 12:15:00 14.5 C 9.95 g/m*3 14.5 C 6.4 km/h
80 25-05-2015 12:20:00 14.5 C 9.95 g/m*3 14.5 C 1.6 km/h
81 25-05-2015 12:25:00 14.5 C 9.95 g/m*3 14.5 C 0 km/h
82 25-05-2015 12:30:00 14.5 C 9.95 g/m*3 14.5 C 0 km/h
83 25-05-2015 14:00:00 15.4 C 13.14 g/m*3 15.4 C 3.2 km/h
84 25-05-2015 14:05:00 15.4 C 10.51 g/m*3 15.4 C 3.2 km/h
85 25-05-2015 14:10:00 15.3 C 10.45 g/m*3 15.3 C 1.6 km/h
86 25-05-2015 14:15:00 15.2 C 10.64 g/m*3 15.2 C 1.6 km/h
87 25-05-2015 14:20:00 15.3 C 10.71 g/m*3 15.3 C 3.2 km/h
88 25-05-2015 14:25:00 15.4 C 10.64 g/m*3 15.4 C 1.6 km/h
89 25-05-2015 14:30:00 15.5 C 10.71 g/m*3 15.5 C 0 km/h
90 25-05-2015 14:35:00 15.5 C 10.71 g/m*3 15.5 C 1.6 km/h
91 25-05-2015 15:35:00 15.7 C 11.11 g/m*3 15.7 C 0 km/h
92 25-05-2015 15:40:00 15.6 C 11.3 g/m*3 15.6 C 0 km/h
93 25-05-2015 15:45:00 15.5 C 11.5 g/m*3 15.5 C 0 km/h
94 25-05-2015 15:50:00 15.5 C 11.63 g/m*3 15.5 C 0 km/h
95 25-05-2015 15:55:00 15.5 C 11.37 g/m*3 15.5 C 3.2 km/h
96 25-05-2015 16:00:00 15.6 C 11.44 g/m*3 15.6 C 0 km/h
97 25-05-2015 16:05:00 15.6 C 11.17 g/m*3 15.6 C 1.6 km/h
98 25-05-2015 16:10:00 15.8 C 11.17 g/m*3 15.8 C 0 km/h
99 25-05-2015 16:15:00 15.9 C 10.97 g/m*3 15.9 C 0 km/h
100 25-05-2015 16:20:00 16 C 11.17 g/m*3 16 C 0 km/h
Sensor: Nr:Datum:Temp:Abs-Feuchte:Windchill:Wind:
Aussen-T/F 101 25-05-2015 16:25:00 16.2 C 11.03 g/m*3 16.2 C 0 km/h
102 25-05-2015 16:30:00 16.4 C 11.31 g/m*3 16.4 C 3.2 km/h
103 25-05-2015 16:35:00 16.8 C 11.58 g/m*3 16.8 C 3.2 km/h
104 25-05-2015 16:40:00 17 C 11.43 g/m*3 17 C 4.8 km/h
105 25-05-2015 16:45:00 17.2 C 11.86 g/m*3 17.2 C 6.4 km/h
106 25-05-2015 16:50:00 17.5 C 11.78 g/m*3 17.5 C 4.8 km/h
107 25-05-2015 16:55:00 17.4 C 11.12 g/m*3 17.4 C 3.2 km/h
108 25-05-2015 17:00:00 17.2 C 10.98 g/m*3 17.2 C 1.6 km/h
109 25-05-2015 17:05:00 16.9 C 10.79 g/m*3 16.9 C 1.6 km/h
110 25-05-2015 17:10:00 16.8 C 11.01 g/m*3 16.8 C 0 km/h
111 25-05-2015 17:15:00 16.7 C 11.23 g/m*3 16.7 C 3.2 km/h
112 25-05-2015 17:20:00 16.6 C 11.02 g/m*3 16.6 C 6.4 km/h
113 25-05-2015 17:25:00 16.3 C 11.1 g/m*3 16.3 C 11.3 km/h
114 25-05-2015 17:30:00 15.9 C 10.7 g/m*3 15.9 C 11.3 km/h
115 25-05-2015 17:35:00 15 C 10.9 g/m*3 15 C 0 km/h
116 25-05-2015 17:40:00 14.6 C 11.01 g/m*3 14.6 C 0 km/h
117 25-05-2015 17:45:00 14.4 C 11.13 g/m*3 14.4 C 1.6 km/h
118 25-05-2015 17:50:00 14.3 C 11.18 g/m*3 14.3 C 4.8 km/h
119 25-05-2015 17:55:00 14.3 C 11.18 g/m*3 14.3 C 1.6 km/h
120 25-05-2015 18:00:00 14.4 C 11.37 g/m*3 14.4 C 4.8 km/h
121 25-05-2015 18:05:00 14.4 C 11.37 g/m*3 14.4 C 1.6 km/h
122 25-05-2015 18:10:00 14.3 C 11.06 g/m*3 14.3 C 9.7 km/h
123 25-05-2015 18:15:00 14.2 C 11.11 g/m*3 14.2 C 3.2 km/h
124 25-05-2015 18:20:00 14.3 C 11.3 g/m*3 14.3 C 1.6 km/h
125 25-05-2015 18:25:00 14.4 C 11.37 g/m*3 14.4 C 3.2 km/h
Sensor: Nr:Datum:Temp:Abs-Feuchte:Windchill:Wind:
Aussen-T/F 126 25-05-2015 18:30:00 14.5 C 11.32 g/m*3 14.5 C 3.2 km/h
127 25-05-2015 18:35:00 14.9 C 11.73 g/m*3 14.9 C 1.6 km/h
128 25-05-2015 18:40:00 15.5 C 12.03 g/m*3 15.5 C 0 km/h
129 25-05-2015 18:45:00 15.9 C 12.19 g/m*3 15.9 C 0 km/h
130 25-05-2015 18:50:00 16.3 C 12.07 g/m*3 16.3 C 6.4 km/h
131 25-05-2015 18:55:00 16.2 C 11.86 g/m*3 16.2 C 9.7 km/h
132 25-05-2015 19:00:00 16 C 11.58 g/m*3 16 C 3.2 km/h
133 25-05-2015 19:05:00 16 C 11.58 g/m*3 16 C 3.2 km/h
134 25-05-2015 19:10:00 16 C 11.58 g/m*3 16 C 1.6 km/h
135 25-05-2015 19:15:00 16 C 11.58 g/m*3 16 C 0 km/h
136 25-05-2015 22:05:00 11.7 C 9.83 g/m*3 11.7 C 1.6 km/h
137 25-05-2015 22:10:00 11.7 C 9.83 g/m*3 11.7 C 0 km/h
138 25-05-2015 22:15:00 11.6 C 9.77 g/m*3 11.6 C 1.6 km/h
139 25-05-2015 22:20:00 11.6 C 9.77 g/m*3 11.6 C 6.4 km/h
140 25-05-2015 22:25:00 11.6 C 9.67 g/m*3 11.6 C 8.1 km/h
141 25-05-2015 22:30:00 11.6 C 9.67 g/m*3 11.6 C 3.2 km/h
142 25-05-2015 22:50:00 11.9 C 9.64 g/m*3 11.9 C 6.4 km/h
143 25-05-2015 22:55:00 12.1 C 9.44 g/m*3 12.1 C 8.1 km/h
144 25-05-2015 23:00:00 12.3 C 9.66 g/m*3 12.3 C 1.6 km/h
145 25-05-2015 23:05:00 12.4 C 9.51 g/m*3 12.4 C 4.8 km/h
146 25-05-2015 23:10:00 12.6 C 9.29 g/m*3 12.6 C 11.3 km/h
147 25-05-2015 23:15:00 12.7 C 9.57 g/m*3 12.7 C 3.2 km/h
148 25-05-2015 23:20:00 12.6 C 9.4 g/m*3 12.6 C 3.2 km/h
149 25-05-2015 23:25:00 12.6 C 9.51 g/m*3 12.6 C 6.4 km/h
150 25-05-2015 23:30:00 12.4 C 9.29 g/m*3 12.4 C 4.8 km/h
Sensor: Nr:Datum:Temp:Abs-Feuchte:Windchill:Wind:
Aussen-T/F 151 25-05-2015 23:35:00 12.4 C 9.51 g/m*3 12.4 C 3.2 km/h
152 25-05-2015 23:40:00 12.3 C 9.56 g/m*3 12.3 C 1.6 km/h
153 25-05-2015 23:45:00 12.1 C 9.44 g/m*3 12.1 C 4.8 km/h
154 25-05-2015 23:50:00 12 C 9.17 g/m*3 12 C 9.7 km/h
155 25-05-2015 23:55:00 12 C 9.38 g/m*3 12 C 4.8 km/h
156 26-05-2015 00:00:00 11.9 C 9.11 g/m*3 11.9 C 6.4 km/h
157 26-05-2015 00:05:00 12 C 9.27 g/m*3 12 C 4.8 km/h
158 26-05-2015 00:10:00 11.9 C 9.21 g/m*3 11.9 C 3.2 km/h
159 26-05-2015 00:15:00 11.7 C 9.1 g/m*3 11.7 C 4.8 km/h
160 26-05-2015 00:20:00 11.7 C 9.1 g/m*3 11.7 C 6.4 km/h
161 26-05-2015 00:25:00 11.7 C 8.99 g/m*3 11.7 C 1.6 km/h
162 26-05-2015 00:30:00 11.6 C 9.04 g/m*3 11.6 C 3.2 km/h
163 26-05-2015 00:35:00 11.6 C 9.04 g/m*3 11.6 C 6.4 km/h
164 26-05-2015 00:40:00 11.4 C 9.14 g/m*3 11.4 C 0 km/h
165 26-05-2015 00:45:00 11.3 C 9.08 g/m*3 11.3 C 8.1 km/h
166 26-05-2015 00:50:00 11.3 C 8.77 g/m*3 11.3 C 8.1 km/h
167 26-05-2015 00:55:00 11.4 C 8.93 g/m*3 11.4 C 3.2 km/h
168 26-05-2015 01:00:00 11.4 C 8.93 g/m*3 11.4 C 3.2 km/h
169 26-05-2015 01:05:00 11.4 C 8.72 g/m*3 11.4 C 3.2 km/h
170 26-05-2015 01:10:00 11.6 C 8.94 g/m*3 11.6 C 0 km/h
171 26-05-2015 01:15:00 11.6 C 9.15 g/m*3 11.6 C 0 km/h
172 26-05-2015 01:20:00 11.5 C 8.99 g/m*3 11.5 C 8.1 km/h
173 26-05-2015 01:25:00 11.4 C 8.93 g/m*3 11.4 C 3.2 km/h
174 26-05-2015 01:30:00 11.4 C 8.83 g/m*3 11.4 C 9.7 km/h
175 26-05-2015 01:35:00 11.6 C 8.83 g/m*3 11.6 C 11.3 km/h
Sensor: Nr:Datum:Temp:Abs-Feuchte:Windchill:Wind:
Aussen-T/F 176 26-05-2015 01:40:00 11.7 C 8.79 g/m*3 11.7 C 6.4 km/h
177 26-05-2015 01:45:00 11.7 C 8.58 g/m*3 11.7 C 6.4 km/h
178 26-05-2015 01:50:00 11.8 C 8.74 g/m*3 11.8 C 8.1 km/h
179 26-05-2015 01:55:00 11.8 C 8.74 g/m*3 11.8 C 6.4 km/h
180 26-05-2015 02:00:00 11.7 C 8.58 g/m*3 11.7 C 8.1 km/h
181 26-05-2015 02:05:00 11.7 C 8.58 g/m*3 11.7 C 8.1 km/h
182 26-05-2015 02:10:00 11.6 C 8.63 g/m*3 11.6 C 6.4 km/h
183 26-05-2015 02:15:00 11.4 C 8.72 g/m*3 11.4 C 0 km/h
184 26-05-2015 02:20:00 11.2 C 8.62 g/m*3 11.2 C 1.6 km/h
185 26-05-2015 02:25:00 11.1 C 8.56 g/m*3 11.1 C 1.6 km/h
186 26-05-2015 02:30:00 10.9 C 8.55 g/m*3 10.9 C 1.6 km/h
187 26-05-2015 02:35:00 10.9 C 8.55 g/m*3 10.9 C 3.2 km/h
188 26-05-2015 02:40:00 10.8 C 8.5 g/m*3 10.8 C 4.8 km/h
189 26-05-2015 02:45:00 10.7 C 8.35 g/m*3 9.52 C 9.7 km/h
190 26-05-2015 02:50:00 10.7 C 8.35 g/m*3 10.18 C 6.4 km/h
191 26-05-2015 02:55:00 10.7 C 8.45 g/m*3 10.7 C 0 km/h
192 26-05-2015 03:00:00 10.6 C 8.49 g/m*3 10.6 C 1.6 km/h
193 26-05-2015 03:05:00 10.3 C 8.33 g/m*3 10.3 C 0 km/h
194 26-05-2015 03:10:00 10.2 C 8.28 g/m*3 9.6 C 6.4 km/h
195 26-05-2015 03:15:00 10.2 C 8.47 g/m*3 10.2 C 0 km/h
196 26-05-2015 03:20:00 10.2 C 8.47 g/m*3 10.2 C 0 km/h
197 26-05-2015 03:25:00 10.1 C 8.51 g/m*3 10.1 C 0 km/h
198 26-05-2015 03:30:00 10.1 C 8.32 g/m*3 10.1 C 0 km/h
199 26-05-2015 03:35:00 10.2 C 8.37 g/m*3 10.2 C 3.2 km/h
200 26-05-2015 03:40:00 10.3 C 8.52 g/m*3 10.3 C 0 km/h
Sensor: Nr:Datum:Temp:Abs-Feuchte:Windchill:Wind:
Aussen-T/F 201 26-05-2015 03:45:00 10.3 C 8.52 g/m*3 10.3 C 0 km/h
202 26-05-2015 03:50:00 10.3 C 8.52 g/m*3 10.3 C 3.2 km/h
203 26-05-2015 03:55:00 10.3 C 8.52 g/m*3 10.3 C 0 km/h
204 26-05-2015 04:00:00 10.3 C 8.52 g/m*3 10.3 C 0 km/h
205 26-05-2015 04:05:00 10.3 C 8.52 g/m*3 9.72 C 6.4 km/h
206 26-05-2015 04:10:00 10.3 C 8.43 g/m*3 10.3 C 3.2 km/h
207 26-05-2015 04:15:00 10.3 C 8.33 g/m*3 10.3 C 3.2 km/h
208 26-05-2015 04:20:00 10.4 C 8.38 g/m*3 10.4 C 0 km/h
209 26-05-2015 04:25:00 10.4 C 8.38 g/m*3 10.4 C 1.6 km/h
210 26-05-2015 04:30:00 10.4 C 8.38 g/m*3 10.4 C 1.6 km/h
211 26-05-2015 04:35:00 10.4 C 8.29 g/m*3 10.4 C 1.6 km/h
212 26-05-2015 04:40:00 10.4 C 8.29 g/m*3 10.4 C 0 km/h
213 26-05-2015 04:45:00 10.4 C 8.29 g/m*3 10.4 C 1.6 km/h
214 26-05-2015 04:50:00 10.4 C 8.29 g/m*3 10.4 C 4.8 km/h
215 26-05-2015 04:55:00 10.4 C 8.29 g/m*3 10.4 C 3.2 km/h
216 26-05-2015 05:00:00 10.3 C 8.24 g/m*3 10.3 C 1.6 km/h
217 26-05-2015 05:05:00 10.3 C 8.14 g/m*3 10.3 C 3.2 km/h
218 26-05-2015 05:10:00 10.3 C 8.14 g/m*3 10.3 C 4.8 km/h
219 26-05-2015 05:15:00 10.3 C 8.14 g/m*3 10.3 C 0 km/h
220 26-05-2015 05:20:00 10.3 C 8.14 g/m*3 10.3 C 3.2 km/h
221 26-05-2015 05:25:00 10.2 C 8.18 g/m*3 10.2 C 3.2 km/h
222 26-05-2015 05:30:00 10.2 C 8.28 g/m*3 10.2 C 0 km/h
223 26-05-2015 05:35:00 10.1 C 8.13 g/m*3 10.1 C 0 km/h
224 26-05-2015 05:40:00 9.9 C 8.12 g/m*3 9.9 C 1.6 km/h
225 26-05-2015 05:45:00 9.8 C 8.07 g/m*3 9.8 C 0 km/h
Sensor: Nr:Datum:Temp:Abs-Feuchte:Windchill:Wind:
Aussen-T/F 226 26-05-2015 05:50:00 9.8 C 7.98 g/m*3 9.8 C 1.6 km/h
227 26-05-2015 05:55:00 9.8 C 8.07 g/m*3 9.8 C 1.6 km/h
228 26-05-2015 06:00:00 9.7 C 8.02 g/m*3 9.7 C 0 km/h
229 26-05-2015 06:05:00 9.7 C 8.02 g/m*3 9.7 C 0 km/h
230 26-05-2015 06:10:00 9.8 C 8.07 g/m*3 9.8 C 1.6 km/h
231 26-05-2015 06:15:00 9.8 C 7.98 g/m*3 9.8 C 3.2 km/h
232 26-05-2015 06:20:00 9.8 C 7.98 g/m*3 9.8 C 1.6 km/h
233 26-05-2015 06:25:00 9.8 C 7.98 g/m*3 9.8 C 4.8 km/h
234 26-05-2015 06:30:00 9.9 C 8.03 g/m*3 9.9 C 4.8 km/h
235 26-05-2015 06:35:00 9.9 C 8.03 g/m*3 9.9 C 3.2 km/h
236 26-05-2015 06:40:00 10 C 7.99 g/m*3 9.37 C 6.4 km/h
237 26-05-2015 06:45:00 10 C 7.99 g/m*3 10 C 4.8 km/h
238 26-05-2015 06:50:00 10 C 7.99 g/m*3 9.37 C 6.4 km/h
239 26-05-2015 06:55:00 10.1 C 8.04 g/m*3 10.1 C 1.6 km/h
240 26-05-2015 07:00:00 10.1 C 8.04 g/m*3 10.1 C 3.2 km/h
241 26-05-2015 07:05:00 10.1 C 8.04 g/m*3 9.48 C 6.4 km/h
242 26-05-2015 07:10:00 10.1 C 8.04 g/m*3 8.54 C 11.3 km/h
243 26-05-2015 07:15:00 10.1 C 8.04 g/m*3 10.1 C 4.8 km/h
244 26-05-2015 07:20:00 10.1 C 8.04 g/m*3 10.1 C 4.8 km/h
245 26-05-2015 07:25:00 10.1 C 7.94 g/m*3 10.1 C 3.2 km/h
246 26-05-2015 07:30:00 10.2 C 8.09 g/m*3 10.2 C 1.6 km/h
247 26-05-2015 07:35:00 10.2 C 7.99 g/m*3 10.2 C 4.8 km/h
248 26-05-2015 07:40:00 10.2 C 7.99 g/m*3 9.22 C 8.1 km/h
249 26-05-2015 07:45:00 10.2 C 7.99 g/m*3 10.2 C 3.2 km/h
250 26-05-2015 07:50:00 10.3 C 8.04 g/m*3 10.3 C 4.8 km/h
Sensor: Nr:Datum:Temp:Abs-Feuchte:Windchill:Wind:
Aussen-T/F 251 26-05-2015 07:55:00 10.3 C 8.14 g/m*3 10.3 C 3.2 km/h
252 26-05-2015 08:00:00 10.3 C 8.04 g/m*3 10.3 C 3.2 km/h
253 26-05-2015 08:05:00 10.4 C 8.19 g/m*3 10.4 C 4.8 km/h
254 26-05-2015 08:10:00 10.5 C 8.15 g/m*3 9.95 C 6.4 km/h
255 26-05-2015 08:15:00 10.6 C 8.2 g/m*3 9.69 C 8.1 km/h
256 26-05-2015 08:20:00 10.7 C 8.15 g/m*3 10.7 C 4.8 km/h
257 26-05-2015 08:25:00 10.8 C 8.11 g/m*3 10.8 C 4.8 km/h
258 26-05-2015 08:30:00 10.8 C 8.11 g/m*3 10.8 C 4.8 km/h
259 26-05-2015 08:35:00 10.9 C 8.16 g/m*3 10.9 C 3.2 km/h
260 26-05-2015 08:40:00 10.9 C 8.16 g/m*3 10.41 C 6.4 km/h
261 26-05-2015 08:45:00 10.9 C 8.16 g/m*3 10.04 C 8.1 km/h
262 26-05-2015 08:50:00 11.1 C 8.36 g/m*3 11.1 C 6.4 km/h
263 26-05-2015 08:55:00 11.2 C 8.21 g/m*3 11.2 C 9.7 km/h
264 26-05-2015 09:00:00 11.4 C 8.42 g/m*3 11.4 C 6.4 km/h
265 26-05-2015 09:05:00 11.6 C 8.32 g/m*3 11.6 C 6.4 km/h
266 26-05-2015 09:10:00 11.8 C 8.21 g/m*3 11.8 C 8.1 km/h
267 26-05-2015 09:15:00 11.8 C 8.21 g/m*3 11.8 C 8.1 km/h
268 26-05-2015 09:20:00 12 C 8.21 g/m*3 12 C 8.1 km/h
269 26-05-2015 09:25:00 12.1 C 7.94 g/m*3 12.1 C 9.7 km/h
270 26-05-2015 09:30:00 12.2 C 7.99 g/m*3 12.2 C 12.9 km/h
271 26-05-2015 09:35:00 12.3 C 8.04 g/m*3 12.3 C 14.5 km/h
272 26-05-2015 09:40:00 12.7 C 8.24 g/m*3 12.7 C 16.1 km/h
273 26-05-2015 09:45:00 12.8 C 8.06 g/m*3 12.8 C 16.1 km/h
274 26-05-2015 09:50:00 12.7 C 7.68 g/m*3 12.7 C 12.9 km/h
275 26-05-2015 09:55:00 12.6 C 7.74 g/m*3 12.6 C 9.7 km/h
Sensor: Nr:Datum:Temp:Abs-Feuchte:Windchill:Wind:
Aussen-T/F 276 26-05-2015 10:00:00 12.8 C 7.5 g/m*3 12.8 C 12.9 km/h
277 26-05-2015 10:05:00 12.9 C 7.78 g/m*3 12.9 C 9.7 km/h
278 26-05-2015 10:10:00 13.2 C 7.81 g/m*3 13.2 C 9.7 km/h
279 26-05-2015 10:15:00 13.5 C 7.84 g/m*3 13.5 C 11.3 km/h
280 26-05-2015 10:20:00 13.4 C 7.67 g/m*3 13.4 C 11.3 km/h
281 26-05-2015 10:25:00 13.3 C 7.51 g/m*3 13.3 C 6.4 km/h
282 26-05-2015 10:30:00 13.3 C 7.74 g/m*3 13.3 C 9.7 km/h
283 26-05-2015 10:35:00 13.3 C 7.86 g/m*3 13.3 C 11.3 km/h
284 26-05-2015 10:40:00 13.3 C 7.74 g/m*3 13.3 C 6.4 km/h
285 26-05-2015 10:45:00 13.1 C 7.42 g/m*3 13.1 C 9.7 km/h
286 26-05-2015 10:50:00 13.3 C 7.86 g/m*3 13.3 C 9.7 km/h
287 26-05-2015 10:55:00 13.6 C 7.65 g/m*3 13.6 C 9.7 km/h
288 26-05-2015 11:00:00 13.6 C 7.3 g/m*3 13.6 C 11.3 km/h
289 26-05-2015 11:05:00 13.5 C 7.37 g/m*3 13.5 C 9.7 km/h
290 26-05-2015 11:10:00 13.4 C 7.32 g/m*3 13.4 C 8.1 km/h
291 26-05-2015 11:15:00 13.3 C 7.05 g/m*3 13.3 C 16.1 km/h
292 26-05-2015 11:20:00 13.1 C 7.19 g/m*3 13.1 C 8.1 km/h
293 26-05-2015 11:25:00 12.9 C 6.99 g/m*3 12.9 C 12.9 km/h
294 26-05-2015 11:30:00 13 C 7.37 g/m*3 13 C 12.9 km/h
295 26-05-2015 11:35:00 13.2 C 7 g/m*3 13.2 C 4.8 km/h
296 26-05-2015 11:40:00 13.4 C 7.44 g/m*3 13.4 C 12.9 km/h
297 26-05-2015 11:45:00 13.3 C 7.05 g/m*3 13.3 C 16.1 km/h
298 26-05-2015 11:50:00 13.1 C 7.19 g/m*3 13.1 C 16.1 km/h
299 26-05-2015 11:55:00 13 C 7.14 g/m*3 13 C 9.7 km/h
300 26-05-2015 12:00:00 12.9 C 7.1 g/m*3 12.9 C 14.5 km/h
Sensor: Nr:Datum:Temp:Abs-Feuchte:Windchill:Wind:
Aussen-T/F 301 26-05-2015 12:05:00 12.7 C 7.12 g/m*3 12.7 C 16.1 km/h
302 26-05-2015 12:10:00 12.6 C 7.08 g/m*3 12.6 C 11.3 km/h
303 26-05-2015 12:15:00 12.4 C 7.1 g/m*3 12.4 C 6.4 km/h
304 26-05-2015 12:20:00 12.4 C 7.1 g/m*3 12.4 C 8.1 km/h
305 26-05-2015 12:25:00 12.4 C 7.1 g/m*3 12.4 C 9.7 km/h
306 26-05-2015 12:30:00 12.5 C 6.93 g/m*3 12.5 C 8.1 km/h
307 26-05-2015 12:35:00 12.7 C 6.9 g/m*3 12.7 C 8.1 km/h
308 26-05-2015 12:40:00 12.8 C 6.83 g/m*3 12.8 C 8.1 km/h
309 26-05-2015 12:45:00 12.9 C 6.76 g/m*3 12.9 C 11.3 km/h
310 26-05-2015 12:50:00 13.1 C 6.62 g/m*3 13.1 C 12.9 km/h
311 26-05-2015 12:55:00 13.3 C 6.93 g/m*3 13.3 C 9.7 km/h
312 26-05-2015 13:00:00 13.8 C 6.67 g/m*3 13.8 C 9.7 km/h
313 26-05-2015 13:05:00 13.8 C 6.55 g/m*3 13.8 C 8.1 km/h
314 26-05-2015 13:10:00 13.6 C 6.71 g/m*3 13.6 C 8.1 km/h
315 26-05-2015 13:15:00 13.3 C 6.82 g/m*3 13.3 C 6.4 km/h
316 26-05-2015 13:20:00 13.2 C 7 g/m*3 13.2 C 9.7 km/h
317 26-05-2015 13:25:00 12.9 C 6.88 g/m*3 12.9 C 8.1 km/h
318 26-05-2015 13:30:00 12.8 C 6.83 g/m*3 12.8 C 9.7 km/h
319 26-05-2015 13:35:00 12.8 C 7.06 g/m*3 12.8 C 6.4 km/h
320 26-05-2015 13:40:00 12.8 C 6.94 g/m*3 12.8 C 9.7 km/h
321 26-05-2015 13:45:00 12.9 C 7.21 g/m*3 12.9 C 12.9 km/h
322 26-05-2015 13:50:00 12.9 C 6.99 g/m*3 12.9 C 6.4 km/h
323 26-05-2015 13:55:00 13 C 7.37 g/m*3 13 C 6.4 km/h
324 26-05-2015 14:00:00 13.2 C 6.89 g/m*3 13.2 C 8.1 km/h
325 26-05-2015 14:05:00 13.3 C 7.16 g/m*3 13.3 C 6.4 km/h
Sensor: Nr:Datum:Temp:Abs-Feuchte:Windchill:Wind:
Aussen-T/F 326 26-05-2015 14:10:00 13.5 C 6.9 g/m*3 13.5 C 4.8 km/h
327 26-05-2015 14:15:00 13.7 C 6.99 g/m*3 13.7 C 6.4 km/h
328 26-05-2015 14:20:00 14.1 C 7.16 g/m*3 14.1 C 9.7 km/h
329 26-05-2015 14:25:00 14.7 C 7.18 g/m*3 14.7 C 6.4 km/h
330 26-05-2015 14:30:00 14.8 C 6.71 g/m*3 14.8 C 6.4 km/h
331 26-05-2015 14:35:00 14.6 C 6.88 g/m*3 14.6 C 6.4 km/h
332 26-05-2015 14:40:00 14.4 C 6.8 g/m*3 14.4 C 8.1 km/h
333 26-05-2015 14:45:00 14.3 C 7 g/m*3 14.3 C 4.8 km/h
334 26-05-2015 14:50:00 14.3 C 7.37 g/m*3 14.3 C 9.7 km/h
335 26-05-2015 14:55:00 14.6 C 7.38 g/m*3 14.6 C 8.1 km/h
336 26-05-2015 15:00:00 14.8 C 7.35 g/m*3 14.8 C 11.3 km/h
337 26-05-2015 15:05:00 14.7 C 6.92 g/m*3 14.7 C 8.1 km/h
338 26-05-2015 15:10:00 14.4 C 6.8 g/m*3 14.4 C 8.1 km/h
339 26-05-2015 15:15:00 14.1 C 6.92 g/m*3 14.1 C 6.4 km/h
340 26-05-2015 15:20:00 13.8 C 6.91 g/m*3 13.8 C 6.4 km/h
341 26-05-2015 15:25:00 13.7 C 6.87 g/m*3 13.7 C 4.8 km/h
342 26-05-2015 15:30:00 13.4 C 6.74 g/m*3 13.4 C 8.1 km/h
343 26-05-2015 15:35:00 13.3 C 6.93 g/m*3 13.3 C 4.8 km/h
344 26-05-2015 15:40:00 13.3 C 6.82 g/m*3 13.3 C 9.7 km/h
345 26-05-2015 15:45:00 13.3 C 6.82 g/m*3 13.3 C 9.7 km/h
346 26-05-2015 15:50:00 13.4 C 6.74 g/m*3 13.4 C 9.7 km/h
347 26-05-2015 15:55:00 13.5 C 7.02 g/m*3 13.5 C 9.7 km/h
348 26-05-2015 16:00:00 13.7 C 6.99 g/m*3 13.7 C 6.4 km/h
349 26-05-2015 16:05:00 13.8 C 6.91 g/m*3 13.8 C 6.4 km/h
350 26-05-2015 16:10:00 13.8 C 6.79 g/m*3 13.8 C 11.3 km/h
Sensor: Nr:Datum:Temp:Abs-Feuchte:Windchill:Wind:
Aussen-T/F 351 26-05-2015 16:15:00 13.8 C 6.79 g/m*3 13.8 C 8.1 km/h
352 26-05-2015 16:20:00 13.9 C 6.95 g/m*3 13.9 C 4.8 km/h
353 26-05-2015 16:25:00 13.8 C 7.03 g/m*3 13.8 C 6.4 km/h
354 26-05-2015 16:30:00 13.8 C 6.91 g/m*3 13.8 C 11.3 km/h
355 26-05-2015 16:35:00 13.7 C 6.75 g/m*3 13.7 C 4.8 km/h
356 26-05-2015 16:40:00 13.7 C 7.1 g/m*3 13.7 C 6.4 km/h
357 26-05-2015 16:45:00 13.6 C 6.94 g/m*3 13.6 C 6.4 km/h
358 26-05-2015 16:50:00 13.4 C 6.97 g/m*3 13.4 C 1.6 km/h
359 26-05-2015 16:55:00 13.4 C 6.97 g/m*3 13.4 C 1.6 km/h
360 26-05-2015 17:00:00 13.4 C 6.97 g/m*3 13.4 C 0 km/h
361 26-05-2015 17:05:00 13.4 C 7.32 g/m*3 13.4 C 0 km/h
362 26-05-2015 17:10:00 13.5 C 7.25 g/m*3 13.5 C 4.8 km/h
363 26-05-2015 17:15:00 13.7 C 7.1 g/m*3 13.7 C 4.8 km/h
364 26-05-2015 17:20:00 13.8 C 7.39 g/m*3 13.8 C 4.8 km/h
365 26-05-2015 17:25:00 13.8 C 7.27 g/m*3 13.8 C 4.8 km/h
366 26-05-2015 17:30:00 14 C 7.24 g/m*3 14 C 8.1 km/h
367 26-05-2015 17:35:00 14.2 C 7.33 g/m*3 14.2 C 3.2 km/h
368 26-05-2015 17:40:00 14.3 C 7.37 g/m*3 14.3 C 6.4 km/h
369 26-05-2015 17:45:00 14.5 C 7.71 g/m*3 14.5 C 6.4 km/h
370 26-05-2015 17:50:00 14.8 C 7.47 g/m*3 14.8 C 6.4 km/h
371 26-05-2015 17:55:00 14.8 C 7.35 g/m*3 14.8 C 3.2 km/h
372 26-05-2015 18:00:00 14.7 C 7.18 g/m*3 14.7 C 3.2 km/h
373 26-05-2015 18:05:00 14.4 C 7.42 g/m*3 14.4 C 3.2 km/h
374 26-05-2015 18:10:00 14.3 C 8.23 g/m*3 14.3 C 0 km/h
375 26-05-2015 18:15:00 13.9 C 8.39 g/m*3 13.9 C 0 km/h
Sensor: Nr:Datum:Temp:Abs-Feuchte:Windchill:Wind:
Aussen-T/F 376 26-05-2015 18:20:00 13.5 C 8.3 g/m*3 13.5 C 0 km/h
377 26-05-2015 18:25:00 13.1 C 8.33 g/m*3 13.1 C 0 km/h
378 26-05-2015 18:30:00 12.9 C 8.45 g/m*3 12.9 C 0 km/h
379 26-05-2015 18:35:00 12.7 C 8.35 g/m*3 12.7 C 0 km/h
380 26-05-2015 18:40:00 12.6 C 8.41 g/m*3 12.6 C 0 km/h
381 26-05-2015 18:45:00 12.6 C 8.52 g/m*3 12.6 C 0 km/h
382 26-05-2015 18:50:00 12.5 C 8.58 g/m*3 12.5 C 0 km/h
383 26-05-2015 18:55:00 12.6 C 8.63 g/m*3 12.6 C 0 km/h
384 26-05-2015 19:00:00 12.6 C 8.63 g/m*3 12.6 C 0 km/h
385 26-05-2015 19:05:00 12.7 C 8.68 g/m*3 12.7 C 0 km/h
386 26-05-2015 19:10:00 12.7 C 8.91 g/m*3 12.7 C 0 km/h
387 26-05-2015 19:15:00 12.7 C 8.91 g/m*3 12.7 C 0 km/h
388 26-05-2015 19:20:00 12.6 C 8.85 g/m*3 12.6 C 0 km/h
389 26-05-2015 19:25:00 12.6 C 8.63 g/m*3 12.6 C 0 km/h
390 26-05-2015 19:30:00 12.4 C 8.63 g/m*3 12.4 C 0 km/h
391 26-05-2015 19:35:00 12.4 C 8.85 g/m*3 12.4 C 0 km/h
392 26-05-2015 19:40:00 12.4 C 8.74 g/m*3 12.4 C 0 km/h
393 26-05-2015 19:45:00 12.4 C 8.85 g/m*3 12.4 C 0 km/h
394 26-05-2015 19:50:00 12.3 C 8.69 g/m*3 12.3 C 0 km/h
395 26-05-2015 19:55:00 12.2 C 8.52 g/m*3 12.2 C 0 km/h
396 26-05-2015 20:00:00 12.1 C 8.58 g/m*3 12.1 C 0 km/h
397 26-05-2015 20:05:00 12.1 C 8.79 g/m*3 12.1 C 0 km/h
398 26-05-2015 20:10:00 11.9 C 8.68 g/m*3 11.9 C 0 km/h
399 26-05-2015 20:15:00 11.8 C 8.63 g/m*3 11.8 C 0 km/h
400 26-05-2015 20:20:00 11.8 C 8.63 g/m*3 11.8 C 0 km/h
Sensor: Nr:Datum:Temp:Abs-Feuchte:Windchill:Wind:
Aussen-T/F 401 26-05-2015 20:25:00 11.8 C 8.63 g/m*3 11.8 C 0 km/h
402 26-05-2015 20:30:00 11.7 C 8.58 g/m*3 11.7 C 0 km/h
403 26-05-2015 20:35:00 11.7 C 8.68 g/m*3 11.7 C 0 km/h
404 26-05-2015 20:40:00 11.6 C 8.63 g/m*3 11.6 C 0 km/h
405 26-05-2015 20:45:00 11.6 C 8.63 g/m*3 11.6 C 1.6 km/h
406 26-05-2015 20:50:00 11.6 C 8.73 g/m*3 11.6 C 0 km/h
407 26-05-2015 20:55:00 11.6 C 8.73 g/m*3 11.6 C 0 km/h
408 26-05-2015 21:00:00 11.4 C 8.62 g/m*3 11.4 C 0 km/h
409 26-05-2015 21:05:00 11.4 C 8.62 g/m*3 11.4 C 0 km/h
410 26-05-2015 21:10:00 11.4 C 8.72 g/m*3 11.4 C 0 km/h
411 26-05-2015 21:15:00 11.3 C 8.57 g/m*3 11.3 C 0 km/h
412 26-05-2015 21:20:00 11.2 C 8.41 g/m*3 11.2 C 0 km/h
413 26-05-2015 21:25:00 11.1 C 8.36 g/m*3 11.1 C 0 km/h
414 26-05-2015 21:30:00 11.1 C 8.36 g/m*3 11.1 C 0 km/h
415 26-05-2015 21:35:00 11 C 8.31 g/m*3 11 C 0 km/h
416 26-05-2015 21:40:00 10.9 C 8.26 g/m*3 10.9 C 0 km/h
417 26-05-2015 21:45:00 10.9 C 8.26 g/m*3 10.9 C 0 km/h
418 26-05-2015 21:50:00 10.9 C 8.16 g/m*3 10.9 C 0 km/h
419 26-05-2015 21:55:00 10.8 C 8.2 g/m*3 10.8 C 0 km/h
420 26-05-2015 22:00:00 10.8 C 8.11 g/m*3 10.8 C 3.2 km/h
421 26-05-2015 22:05:00 10.8 C 8.11 g/m*3 10.8 C 1.6 km/h
422 26-05-2015 22:10:00 10.9 C 8.16 g/m*3 10.9 C 0 km/h
423 26-05-2015 22:15:00 11.1 C 8.16 g/m*3 11.1 C 3.2 km/h
424 26-05-2015 22:20:00 11.2 C 8.21 g/m*3 11.2 C 0 km/h
425 26-05-2015 22:25:00 11.1 C 8.16 g/m*3 11.1 C 0 km/h
Sensor: Nr:Datum:Temp:Abs-Feuchte:Windchill:Wind:
Aussen-T/F 426 26-05-2015 22:30:00 11.1 C 8.06 g/m*3 11.1 C 1.6 km/h
427 26-05-2015 22:35:00 11 C 8.01 g/m*3 11 C 0 km/h
428 26-05-2015 22:40:00 10.8 C 8.01 g/m*3 10.8 C 0 km/h
429 26-05-2015 22:45:00 10.6 C 7.91 g/m*3 10.6 C 0 km/h
430 26-05-2015 22:50:00 10.3 C 7.76 g/m*3 10.3 C 0 km/h
431 26-05-2015 22:55:00 10.1 C 7.75 g/m*3 10.1 C 0 km/h
432 26-05-2015 23:00:00 9.9 C 7.66 g/m*3 9.9 C 0 km/h
433 26-05-2015 23:05:00 9.8 C 7.7 g/m*3 9.8 C 0 km/h
434 26-05-2015 23:10:00 9.7 C 7.65 g/m*3 9.7 C 0 km/h
435 26-05-2015 23:15:00 9.6 C 7.69 g/m*3 9.6 C 0 km/h
436 26-05-2015 23:20:00 9.5 C 7.65 g/m*3 9.5 C 0 km/h
437 26-05-2015 23:25:00 9.4 C 7.69 g/m*3 9.4 C 1.6 km/h
438 26-05-2015 23:30:00 9.4 C 7.69 g/m*3 9.4 C 0 km/h
439 26-05-2015 23:35:00 9.3 C 7.64 g/m*3 9.3 C 0 km/h
440 26-05-2015 23:40:00 9.3 C 7.64 g/m*3 9.3 C 0 km/h
441 26-05-2015 23:45:00 9.3 C 7.64 g/m*3 9.3 C 0 km/h
442 26-05-2015 23:50:00 9.2 C 7.5 g/m*3 9.2 C 0 km/h
443 26-05-2015 23:55:00 9.3 C 7.55 g/m*3 9.3 C 0 km/h
444 27-05-2015 00:00:00 9.3 C 7.46 g/m*3 9.3 C 0 km/h
445 27-05-2015 00:05:00 9.3 C 7.46 g/m*3 9.3 C 0 km/h
446 27-05-2015 00:10:00 9.2 C 7.41 g/m*3 9.2 C 0 km/h
447 27-05-2015 00:15:00 9.1 C 7.45 g/m*3 9.1 C 0 km/h
448 27-05-2015 00:20:00 9 C 7.41 g/m*3 9 C 0 km/h
449 27-05-2015 00:25:00 8.9 C 7.36 g/m*3 8.9 C 0 km/h
450 27-05-2015 00:30:00 8.9 C 7.18 g/m*3 8.9 C 3.2 km/h
Sensor: Nr:Datum:Temp:Abs-Feuchte:Windchill:Wind:
Aussen-T/F 451 27-05-2015 00:35:00 9.1 C 7.28 g/m*3 9.1 C 4.8 km/h
452 27-05-2015 00:40:00 9.2 C 7.14 g/m*3 9.2 C 1.6 km/h
453 27-05-2015 00:45:00 9.1 C 7.19 g/m*3 9.1 C 0 km/h
454 27-05-2015 00:50:00 9.1 C 7.19 g/m*3 9.1 C 0 km/h
455 27-05-2015 00:55:00 9 C 7.23 g/m*3 9 C 0 km/h
456 27-05-2015 01:00:00 8.8 C 7.14 g/m*3 8.8 C 0 km/h
457 27-05-2015 01:05:00 8.7 C 7.18 g/m*3 8.7 C 0 km/h
458 27-05-2015 01:10:00 8.6 C 7.22 g/m*3 8.6 C 0 km/h
459 27-05-2015 01:15:00 8.4 C 7.13 g/m*3 8.4 C 0 km/h
460 27-05-2015 01:20:00 8.3 C 7.16 g/m*3 8.3 C 0 km/h
461 27-05-2015 01:25:00 8.1 C 7.07 g/m*3 8.1 C 0 km/h
462 27-05-2015 01:30:00 8 C 7.03 g/m*3 8 C 0 km/h
463 27-05-2015 01:35:00 8.1 C 7.16 g/m*3 8.1 C 0 km/h
464 27-05-2015 01:40:00 8 C 7.03 g/m*3 8 C 0 km/h
465 27-05-2015 01:45:00 8 C 7.03 g/m*3 8 C 0 km/h
466 27-05-2015 01:50:00 7.9 C 6.98 g/m*3 7.9 C 0 km/h
467 27-05-2015 01:55:00 7.8 C 7.02 g/m*3 7.8 C 0 km/h
468 27-05-2015 02:00:00 7.7 C 6.97 g/m*3 7.7 C 0 km/h
469 27-05-2015 02:05:00 7.7 C 6.97 g/m*3 7.7 C 0 km/h
470 27-05-2015 02:10:00 7.6 C 7.01 g/m*3 7.6 C 0 km/h
471 27-05-2015 02:15:00 7.5 C 6.96 g/m*3 7.5 C 0 km/h
472 27-05-2015 02:20:00 7.4 C 6.92 g/m*3 7.4 C 0 km/h
473 27-05-2015 02:25:00 7.3 C 6.87 g/m*3 7.3 C 0 km/h
474 27-05-2015 02:30:00 7.2 C 6.91 g/m*3 7.2 C 0 km/h
475 27-05-2015 02:35:00 7.1 C 6.86 g/m*3 7.1 C 0 km/h
Sensor: Nr:Datum:Temp:Abs-Feuchte:Windchill:Wind:
Aussen-T/F 476 27-05-2015 02:40:00 7 C 6.9 g/m*3 7 C 0 km/h
477 27-05-2015 02:45:00 6.9 C 6.85 g/m*3 6.9 C 1.6 km/h
478 27-05-2015 02:50:00 6.8 C 6.88 g/m*3 6.8 C 1.6 km/h
479 27-05-2015 02:55:00 6.7 C 6.84 g/m*3 6.7 C 0 km/h
480 27-05-2015 03:00:00 6.6 C 6.79 g/m*3 6.6 C 0 km/h
481 27-05-2015 03:05:00 6.4 C 6.71 g/m*3 6.4 C 0 km/h
482 27-05-2015 03:10:00 6.4 C 6.71 g/m*3 6.4 C 0 km/h
483 27-05-2015 03:15:00 6.3 C 6.74 g/m*3 6.3 C 0 km/h
484 27-05-2015 03:20:00 6.3 C 6.74 g/m*3 6.3 C 0 km/h
485 27-05-2015 03:25:00 6.3 C 6.74 g/m*3 6.3 C 0 km/h
486 27-05-2015 03:30:00 6.3 C 6.74 g/m*3 6.3 C 1.6 km/h
487 27-05-2015 03:35:00 6.3 C 6.81 g/m*3 6.3 C 1.6 km/h
488 27-05-2015 03:40:00 6.3 C 6.81 g/m*3 6.3 C 1.6 km/h
489 27-05-2015 03:45:00 6.3 C 6.81 g/m*3 6.3 C 0 km/h
490 27-05-2015 03:50:00 6.3 C 6.81 g/m*3 6.3 C 1.6 km/h
491 27-05-2015 03:55:00 6.3 C 6.81 g/m*3 6.3 C 1.6 km/h
492 27-05-2015 04:00:00 6.4 C 6.85 g/m*3 6.4 C 0 km/h
493 27-05-2015 04:05:00 6.4 C 6.85 g/m*3 6.4 C 0 km/h
494 27-05-2015 04:10:00 6.4 C 6.85 g/m*3 6.4 C 1.6 km/h
495 27-05-2015 04:15:00 6.4 C 6.85 g/m*3 6.4 C 3.2 km/h
496 27-05-2015 04:20:00 6.6 C 6.95 g/m*3 6.6 C 3.2 km/h
497 27-05-2015 04:25:00 6.6 C 6.95 g/m*3 6.6 C 4.8 km/h
498 27-05-2015 04:30:00 6.7 C 6.99 g/m*3 6.7 C 1.6 km/h
499 27-05-2015 04:35:00 6.7 C 6.99 g/m*3 6.7 C 1.6 km/h
500 27-05-2015 04:40:00 6.8 C 7.04 g/m*3 6.8 C 1.6 km/h
Sensor: Nr:Datum:Temp:Abs-Feuchte:Windchill:Wind:
Aussen-T/F 501 27-05-2015 04:45:00 6.8 C 6.96 g/m*3 5.67 C 6.4 km/h
502 27-05-2015 04:50:00 6.8 C 6.96 g/m*3 5.67 C 6.4 km/h
503 27-05-2015 04:55:00 6.9 C 7.01 g/m*3 6.9 C 1.6 km/h
504 27-05-2015 05:00:00 6.9 C 7.01 g/m*3 6.9 C 0 km/h
505 27-05-2015 05:05:00 6.9 C 7.01 g/m*3 6.9 C 0 km/h
506 27-05-2015 05:10:00 7 C 7.05 g/m*3 7 C 0 km/h
507 27-05-2015 05:15:00 7 C 7.05 g/m*3 7 C 0 km/h
508 27-05-2015 05:20:00 7.1 C 7.1 g/m*3 7.1 C 0 km/h
509 27-05-2015 05:25:00 7.1 C 7.1 g/m*3 7.1 C 4.8 km/h
510 27-05-2015 05:30:00 7.1 C 7.1 g/m*3 7.1 C 3.2 km/h
511 27-05-2015 05:35:00 7.1 C 7.1 g/m*3 7.1 C 4.8 km/h
512 27-05-2015 05:40:00 7.1 C 7.1 g/m*3 7.1 C 3.2 km/h
513 27-05-2015 05:45:00 7.1 C 7.1 g/m*3 7.1 C 1.6 km/h
514 27-05-2015 05:50:00 7.2 C 7.14 g/m*3 7.2 C 1.6 km/h
515 27-05-2015 05:55:00 7.2 C 7.14 g/m*3 7.2 C 4.8 km/h
516 27-05-2015 06:00:00 7.2 C 7.14 g/m*3 7.2 C 1.6 km/h
517 27-05-2015 06:05:00 7.2 C 7.14 g/m*3 7.2 C 4.8 km/h
518 27-05-2015 06:10:00 7.2 C 7.14 g/m*3 7.2 C 1.6 km/h
519 27-05-2015 06:15:00 7.3 C 7.19 g/m*3 7.3 C 0 km/h
520 27-05-2015 06:20:00 7.3 C 7.19 g/m*3 7.3 C 4.8 km/h
521 27-05-2015 06:25:00 7.3 C 7.19 g/m*3 7.3 C 3.2 km/h
522 27-05-2015 06:30:00 7.4 C 7.24 g/m*3 7.4 C 0 km/h
523 27-05-2015 06:35:00 7.4 C 7.24 g/m*3 7.4 C 3.2 km/h
524 27-05-2015 06:40:00 7.5 C 7.28 g/m*3 7.5 C 0 km/h
525 27-05-2015 06:45:00 7.5 C 7.28 g/m*3 7.5 C 3.2 km/h
Sensor: Nr:Datum:Temp:Abs-Feuchte:Windchill:Wind:
Aussen-T/F 526 27-05-2015 06:50:00 7.6 C 7.33 g/m*3 7.6 C 1.6 km/h
527 27-05-2015 06:55:00 7.6 C 7.33 g/m*3 7.6 C 1.6 km/h
528 27-05-2015 07:00:00 7.7 C 7.38 g/m*3 7.7 C 0 km/h
529 27-05-2015 07:05:00 7.7 C 7.38 g/m*3 7.7 C 4.8 km/h
530 27-05-2015 07:10:00 7.8 C 7.43 g/m*3 7.8 C 0 km/h
531 27-05-2015 07:15:00 7.8 C 7.43 g/m*3 7.8 C 0 km/h
532 27-05-2015 07:20:00 7.9 C 7.39 g/m*3 7.9 C 3.2 km/h
533 27-05-2015 07:25:00 8 C 7.44 g/m*3 8 C 3.2 km/h
534 27-05-2015 07:30:00 8.1 C 7.49 g/m*3 8.1 C 3.2 km/h
535 27-05-2015 07:35:00 8.2 C 7.54 g/m*3 6.87 C 8.1 km/h
536 27-05-2015 07:40:00 8.3 C 7.59 g/m*3 6.99 C 8.1 km/h
537 27-05-2015 07:45:00 8.4 C 7.63 g/m*3 8.4 C 3.2 km/h
538 27-05-2015 07:50:00 8.5 C 7.68 g/m*3 8.5 C 3.2 km/h
539 27-05-2015 07:55:00 8.7 C 7.7 g/m*3 7.13 C 9.7 km/h
540 27-05-2015 08:00:00 8.7 C 7.61 g/m*3 8.7 C 4.8 km/h
541 27-05-2015 08:05:00 8.8 C 7.57 g/m*3 8.8 C 1.6 km/h
542 27-05-2015 08:10:00 9 C 7.58 g/m*3 9 C 4.8 km/h
543 27-05-2015 08:15:00 9.2 C 7.77 g/m*3 7.73 C 9.7 km/h
544 27-05-2015 08:20:00 9.2 C 7.68 g/m*3 9.2 C 3.2 km/h
545 27-05-2015 08:25:00 9.4 C 7.78 g/m*3 9.4 C 0 km/h
546 27-05-2015 08:30:00 9.6 C 7.79 g/m*3 9.6 C 3.2 km/h
547 27-05-2015 08:35:00 9.7 C 7.93 g/m*3 9.7 C 4.8 km/h
548 27-05-2015 08:40:00 9.8 C 7.89 g/m*3 9.8 C 4.8 km/h
549 27-05-2015 08:45:00 9.9 C 7.94 g/m*3 9.9 C 4.8 km/h
550 27-05-2015 08:50:00 10 C 7.89 g/m*3 10 C 3.2 km/h
Sensor: Nr:Datum:Temp:Abs-Feuchte:Windchill:Wind:
Aussen-T/F 551 27-05-2015 08:55:00 10.1 C 7.85 g/m*3 10.1 C 3.2 km/h
552 27-05-2015 09:00:00 10.2 C 7.9 g/m*3 10.2 C 4.8 km/h
553 27-05-2015 09:05:00 10.3 C 7.85 g/m*3 10.3 C 4.8 km/h
554 27-05-2015 09:10:00 10.3 C 7.76 g/m*3 10.3 C 3.2 km/h
555 27-05-2015 09:15:00 10.4 C 7.71 g/m*3 10.4 C 3.2 km/h
556 27-05-2015 09:20:00 10.6 C 7.71 g/m*3 10.6 C 3.2 km/h
557 27-05-2015 09:25:00 10.7 C 7.66 g/m*3 10.7 C 3.2 km/h
558 27-05-2015 09:30:00 10.8 C 7.81 g/m*3 10.8 C 3.2 km/h
559 27-05-2015 09:35:00 10.9 C 7.66 g/m*3 10.9 C 3.2 km/h
560 27-05-2015 09:40:00 10.9 C 7.56 g/m*3 10.9 C 1.6 km/h
561 27-05-2015 09:45:00 11.1 C 7.55 g/m*3 11.1 C 3.2 km/h
562 27-05-2015 09:50:00 11.1 C 7.66 g/m*3 11.1 C 3.2 km/h
563 27-05-2015 09:55:00 11.2 C 7.7 g/m*3 11.2 C 1.6 km/h
564 27-05-2015 10:00:00 11.2 C 7.4 g/m*3 11.2 C 3.2 km/h
565 27-05-2015 10:05:00 11.3 C 7.45 g/m*3 11.3 C 0 km/h
566 27-05-2015 10:10:00 11.4 C 7.49 g/m*3 11.4 C 6.4 km/h
567 27-05-2015 10:15:00 11.6 C 7.8 g/m*3 11.6 C 4.8 km/h
568 27-05-2015 10:20:00 11.8 C 7.79 g/m*3 11.8 C 6.4 km/h
569 27-05-2015 10:25:00 11.9 C 7.52 g/m*3 11.9 C 4.8 km/h
570 27-05-2015 10:30:00 11.9 C 7.41 g/m*3 11.9 C 8.1 km/h
571 27-05-2015 10:35:00 11.9 C 7.31 g/m*3 11.9 C 3.2 km/h
572 27-05-2015 10:40:00 11.9 C 7.52 g/m*3 11.9 C 4.8 km/h
573 27-05-2015 10:45:00 12.1 C 7.51 g/m*3 12.1 C 4.8 km/h
574 27-05-2015 10:50:00 12.1 C 7.4 g/m*3 12.1 C 3.2 km/h
575 27-05-2015 10:55:00 12.2 C 7.01 g/m*3 12.2 C 4.8 km/h
Sensor: Nr:Datum:Temp:Abs-Feuchte:Windchill:Wind:
Aussen-T/F 576 27-05-2015 11:00:00 12.3 C 7.06 g/m*3 12.3 C 3.2 km/h
577 27-05-2015 11:05:00 12.5 C 7.04 g/m*3 12.5 C 1.6 km/h
578 27-05-2015 11:10:00 12.7 C 6.79 g/m*3 12.7 C 1.6 km/h
579 27-05-2015 11:15:00 12.8 C 6.61 g/m*3 12.8 C 1.6 km/h
580 27-05-2015 11:20:00 12.9 C 6.42 g/m*3 12.9 C 0 km/h
581 27-05-2015 11:25:00 12.9 C 6.31 g/m*3 12.9 C 3.2 km/h
582 27-05-2015 11:30:00 13 C 6.46 g/m*3 13 C 3.2 km/h
583 27-05-2015 11:35:00 13.1 C 6.5 g/m*3 13.1 C 4.8 km/h
584 27-05-2015 11:40:00 12.9 C 6.42 g/m*3 12.9 C 4.8 km/h
585 27-05-2015 11:45:00 13 C 6.46 g/m*3 13 C 6.4 km/h
586 27-05-2015 11:50:00 13.1 C 6.28 g/m*3 13.1 C 8.1 km/h
587 27-05-2015 11:55:00 13.1 C 6.62 g/m*3 13.1 C 1.6 km/h
588 27-05-2015 12:00:00 13.1 C 6.85 g/m*3 13.1 C 3.2 km/h
589 27-05-2015 12:05:00 13.2 C 6.66 g/m*3 13.2 C 8.1 km/h
590 27-05-2015 12:10:00 13.2 C 6.77 g/m*3 13.2 C 8.1 km/h
591 27-05-2015 12:15:00 13.1 C 6.73 g/m*3 13.1 C 4.8 km/h
592 27-05-2015 12:20:00 13.1 C 6.85 g/m*3 13.1 C 3.2 km/h
593 27-05-2015 12:25:00 13.1 C 6.73 g/m*3 13.1 C 4.8 km/h
594 27-05-2015 12:30:00 12.9 C 6.54 g/m*3 12.9 C 4.8 km/h
595 27-05-2015 12:35:00 12.8 C 6.38 g/m*3 12.8 C 4.8 km/h
596 27-05-2015 12:40:00 12.8 C 6.5 g/m*3 12.8 C 1.6 km/h
597 27-05-2015 12:45:00 13.1 C 6.39 g/m*3 13.1 C 4.8 km/h
598 27-05-2015 12:50:00 13.2 C 6.66 g/m*3 13.2 C 4.8 km/h
599 27-05-2015 12:55:00 13.4 C 6.63 g/m*3 13.4 C 4.8 km/h
600 27-05-2015 13:00:00 13.8 C 7.27 g/m*3 13.8 C 9.7 km/h
Sensor: Nr:Datum:Temp:Abs-Feuchte:Windchill:Wind:
Aussen-T/F 601 27-05-2015 13:05:00 13.9 C 6.59 g/m*3 13.9 C 4.8 km/h
602 27-05-2015 13:10:00 13.9 C 7.07 g/m*3 13.9 C 3.2 km/h
603 27-05-2015 13:15:00 14.2 C 7.08 g/m*3 14.2 C 1.6 km/h
604 27-05-2015 13:20:00 14.4 C 6.68 g/m*3 14.4 C 4.8 km/h
605 27-05-2015 13:25:00 14.5 C 6.84 g/m*3 14.5 C 6.4 km/h
606 27-05-2015 13:30:00 14.5 C 6.96 g/m*3 14.5 C 4.8 km/h
607 27-05-2015 13:35:00 14.4 C 6.8 g/m*3 14.4 C 4.8 km/h
608 27-05-2015 13:40:00 14.4 C 6.92 g/m*3 14.4 C 4.8 km/h
609 27-05-2015 13:45:00 14.4 C 6.8 g/m*3 14.4 C 3.2 km/h
610 27-05-2015 13:50:00 14.3 C 6.51 g/m*3 14.3 C 1.6 km/h
611 27-05-2015 13:55:00 14.4 C 7.05 g/m*3 14.4 C 1.6 km/h
612 27-05-2015 14:00:00 14.5 C 6.59 g/m*3 14.5 C 6.4 km/h
613 27-05-2015 14:05:00 14.6 C 6.51 g/m*3 14.6 C 4.8 km/h
614 27-05-2015 14:10:00 14.7 C 6.67 g/m*3 14.7 C 8.1 km/h
615 27-05-2015 14:15:00 15.1 C 7.1 g/m*3 15.1 C 6.4 km/h
616 27-05-2015 14:20:00 15.4 C 6.83 g/m*3 15.4 C 9.7 km/h
617 27-05-2015 14:25:00 15.4 C 6.83 g/m*3 15.4 C 4.8 km/h
618 27-05-2015 14:30:00 15.7 C 6.69 g/m*3 15.7 C 4.8 km/h
619 27-05-2015 14:35:00 16.1 C 7.26 g/m*3 16.1 C 6.4 km/h
620 27-05-2015 14:40:00 16.4 C 6.84 g/m*3 16.4 C 6.4 km/h
621 27-05-2015 14:45:00 16.1 C 6.44 g/m*3 16.1 C 3.2 km/h
622 27-05-2015 14:50:00 15.8 C 7 g/m*3 15.8 C 1.6 km/h
623 27-05-2015 14:55:00 15.6 C 6.52 g/m*3 15.6 C 3.2 km/h
624 27-05-2015 15:00:00 15.4 C 6.31 g/m*3 15.4 C 3.2 km/h
625 27-05-2015 15:05:00 15.2 C 6.49 g/m*3 15.2 C 4.8 km/h
Sensor: Nr:Datum:Temp:Abs-Feuchte:Windchill:Wind:
Aussen-T/F 626 27-05-2015 15:10:00 15.2 C 6.62 g/m*3 15.2 C 3.2 km/h
627 27-05-2015 15:15:00 15.4 C 6.83 g/m*3 15.4 C 1.6 km/h
628 27-05-2015 15:20:00 15.4 C 6.7 g/m*3 15.4 C 4.8 km/h
629 27-05-2015 15:25:00 15.6 C 6.65 g/m*3 15.6 C 4.8 km/h
630 27-05-2015 15:30:00 15.8 C 6.6 g/m*3 15.8 C 4.8 km/h
631 27-05-2015 15:35:00 15.9 C 7.04 g/m*3 15.9 C 1.6 km/h
632 27-05-2015 15:40:00 16.1 C 6.72 g/m*3 16.1 C 1.6 km/h
633 27-05-2015 15:45:00 15.9 C 6.77 g/m*3 15.9 C 3.2 km/h
634 27-05-2015 15:50:00 15.8 C 6.6 g/m*3 15.8 C 4.8 km/h
635 27-05-2015 15:55:00 15.8 C 6.46 g/m*3 15.8 C 3.2 km/h
636 27-05-2015 16:00:00 15.7 C 6.56 g/m*3 15.7 C 1.6 km/h
637 27-05-2015 16:05:00 15.7 C 6.96 g/m*3 15.7 C 1.6 km/h
638 27-05-2015 16:10:00 15.6 C 6.52 g/m*3 15.6 C 4.8 km/h
639 27-05-2015 16:15:00 16.1 C 6.85 g/m*3 16.1 C 3.2 km/h
640 27-05-2015 16:20:00 16.8 C 6.72 g/m*3 16.8 C 3.2 km/h
641 27-05-2015 16:25:00 17.2 C 6.74 g/m*3 17.2 C 8.1 km/h
642 27-05-2015 16:30:00 17.5 C 7.01 g/m*3 17.5 C 9.7 km/h
643 27-05-2015 16:35:00 17.9 C 7.33 g/m*3 17.9 C 9.7 km/h
644 27-05-2015 16:40:00 18.2 C 7.15 g/m*3 18.2 C 9.7 km/h
645 27-05-2015 16:45:00 18 C 6.3 g/m*3 18 C 6.4 km/h
646 27-05-2015 16:50:00 17.8 C 6.53 g/m*3 17.8 C 11.3 km/h
647 27-05-2015 16:55:00 17.4 C 6.37 g/m*3 17.4 C 8.1 km/h
648 27-05-2015 17:00:00 17.5 C 6.86 g/m*3 17.5 C 4.8 km/h
649 27-05-2015 17:05:00 17.5 C 6.41 g/m*3 17.5 C 8.1 km/h
650 27-05-2015 17:10:00 17.3 C 6.63 g/m*3 17.3 C 4.8 km/h
Sensor: Nr:Datum:Temp:Abs-Feuchte:Windchill:Wind:
Aussen-T/F 651 27-05-2015 17:15:00 17.1 C 6.7 g/m*3 17.1 C 4.8 km/h
652 27-05-2015 17:20:00 16.8 C 6.43 g/m*3 16.8 C 3.2 km/h
653 27-05-2015 17:25:00 17.1 C 6.7 g/m*3 17.1 C 1.6 km/h
654 27-05-2015 17:30:00 17.5 C 6.86 g/m*3 17.5 C 6.4 km/h
655 27-05-2015 17:35:00 17.6 C 6.9 g/m*3 17.6 C 4.8 km/h
656 27-05-2015 17:40:00 17.7 C 6.64 g/m*3 17.7 C 3.2 km/h
657 27-05-2015 17:45:00 17.8 C 6.68 g/m*3 17.8 C 1.6 km/h
658 27-05-2015 17:50:00 17.6 C 6.9 g/m*3 17.6 C 3.2 km/h
659 27-05-2015 17:55:00 17.6 C 6.45 g/m*3 17.6 C 6.4 km/h
660 27-05-2015 18:00:00 17.7 C 6.49 g/m*3 17.7 C 6.4 km/h
661 27-05-2015 18:05:00 17.6 C 6.6 g/m*3 17.6 C 4.8 km/h
662 27-05-2015 18:10:00 17.7 C 6.49 g/m*3 17.7 C 4.8 km/h
663 27-05-2015 18:15:00 17.5 C 6.56 g/m*3 17.5 C 4.8 km/h
664 27-05-2015 18:20:00 17.5 C 6.56 g/m*3 17.5 C 6.4 km/h
665 27-05-2015 18:25:00 17.5 C 6.56 g/m*3 17.5 C 4.8 km/h
666 27-05-2015 18:30:00 17.3 C 7.51 g/m*3 17.3 C 3.2 km/h
667 27-05-2015 18:35:00 17 C 6.8 g/m*3 17 C 1.6 km/h
668 27-05-2015 18:40:00 17.1 C 6.99 g/m*3 17.1 C 3.2 km/h
669 27-05-2015 18:45:00 17.3 C 6.92 g/m*3 17.3 C 3.2 km/h
670 27-05-2015 18:50:00 17.6 C 6.9 g/m*3 17.6 C 6.4 km/h
671 27-05-2015 18:55:00 17.6 C 6.45 g/m*3 17.6 C 6.4 km/h
672 27-05-2015 19:00:00 17.7 C 6.94 g/m*3 17.7 C 8.1 km/h
673 27-05-2015 19:05:00 17.7 C 7.09 g/m*3 17.7 C 6.4 km/h
674 27-05-2015 19:10:00 17.4 C 6.52 g/m*3 17.4 C 6.4 km/h
675 27-05-2015 19:15:00 17.3 C 6.48 g/m*3 17.3 C 4.8 km/h
Sensor: Nr:Datum:Temp:Abs-Feuchte:Windchill:Wind:
Aussen-T/F 676 27-05-2015 19:20:00 17.2 C 6.44 g/m*3 17.2 C 4.8 km/h
677 27-05-2015 19:25:00 17.1 C 6.55 g/m*3 17.1 C 4.8 km/h
678 27-05-2015 19:30:00 16.8 C 6.29 g/m*3 16.8 C 1.6 km/h
679 27-05-2015 19:35:00 16.7 C 6.54 g/m*3 16.7 C 3.2 km/h
680 27-05-2015 19:40:00 16.6 C 6.78 g/m*3 16.6 C 3.2 km/h
681 27-05-2015 19:45:00 16.4 C 6.7 g/m*3 16.4 C 3.2 km/h
682 27-05-2015 19:50:00 16.3 C 6.66 g/m*3 16.3 C 6.4 km/h
683 27-05-2015 19:55:00 16.2 C 6.9 g/m*3 16.2 C 4.8 km/h
684 27-05-2015 20:00:00 16.2 C 6.62 g/m*3 16.2 C 3.2 km/h
685 27-05-2015 20:05:00 16.1 C 7.26 g/m*3 16.1 C 1.6 km/h
686 27-05-2015 20:10:00 16 C 6.95 g/m*3 16 C 1.6 km/h
687 27-05-2015 20:15:00 15.9 C 6.77 g/m*3 15.9 C 1.6 km/h
688 27-05-2015 20:20:00 15.8 C 6.87 g/m*3 15.8 C 0 km/h
689 27-05-2015 20:25:00 15.7 C 7.09 g/m*3 15.7 C 1.6 km/h
690 27-05-2015 20:30:00 15.6 C 8.25 g/m*3 15.6 C 0 km/h
691 27-05-2015 20:35:00 15.2 C 7.4 g/m*3 15.2 C 1.6 km/h
692 27-05-2015 20:40:00 14.9 C 7.9 g/m*3 14.9 C 0 km/h
693 27-05-2015 20:45:00 14.7 C 7.93 g/m*3 14.7 C 0 km/h
694 27-05-2015 20:50:00 14.2 C 7.94 g/m*3 14.2 C 0 km/h
695 27-05-2015 20:55:00 13.8 C 7.86 g/m*3 13.8 C 0 km/h
696 27-05-2015 21:00:00 13.5 C 7.95 g/m*3 13.5 C 0 km/h
697 27-05-2015 21:05:00 13.1 C 7.87 g/m*3 13.1 C 0 km/h
698 27-05-2015 21:10:00 12.7 C 7.9 g/m*3 12.7 C 0 km/h
699 27-05-2015 21:15:00 12.3 C 7.82 g/m*3 12.3 C 0 km/h
700 27-05-2015 21:20:00 11.8 C 7.68 g/m*3 11.8 C 0 km/h
Sensor: Nr:Datum:Temp:Abs-Feuchte:Windchill:Wind:
Aussen-T/F 701 27-05-2015 21:25:00 11.4 C 7.6 g/m*3 11.4 C 0 km/h
702 27-05-2015 21:30:00 11.2 C 7.6 g/m*3 11.2 C 0 km/h
703 27-05-2015 21:35:00 11.1 C 7.66 g/m*3 11.1 C 0 km/h
704 27-05-2015 21:40:00 10.8 C 7.51 g/m*3 10.8 C 0 km/h
705 27-05-2015 21:45:00 10.7 C 7.46 g/m*3 10.7 C 0 km/h
706 27-05-2015 21:50:00 10.7 C 7.46 g/m*3 10.7 C 0 km/h
707 27-05-2015 21:55:00 10.7 C 7.56 g/m*3 10.7 C 1.6 km/h
708 27-05-2015 22:00:00 10.6 C 7.42 g/m*3 10.6 C 0 km/h
709 27-05-2015 22:05:00 10.6 C 7.52 g/m*3 10.6 C 0 km/h
710 27-05-2015 22:10:00 10.6 C 7.32 g/m*3 10.6 C 0 km/h
711 27-05-2015 22:15:00 10.6 C 7.42 g/m*3 10.6 C 0 km/h
712 27-05-2015 22:20:00 10.6 C 7.42 g/m*3 10.6 C 1.6 km/h
713 27-05-2015 22:25:00 10.6 C 7.42 g/m*3 10.6 C 1.6 km/h
714 27-05-2015 22:30:00 10.6 C 7.42 g/m*3 10.6 C 0 km/h
715 27-05-2015 22:35:00 10.5 C 7.37 g/m*3 10.5 C 1.6 km/h
716 27-05-2015 22:40:00 10.5 C 7.47 g/m*3 10.5 C 0 km/h
717 27-05-2015 22:45:00 10.4 C 7.32 g/m*3 10.4 C 0 km/h
718 27-05-2015 22:50:00 10.4 C 7.42 g/m*3 10.4 C 1.6 km/h
719 27-05-2015 22:55:00 10.3 C 7.28 g/m*3 10.3 C 0 km/h
720 27-05-2015 23:00:00 10.3 C 7.28 g/m*3 10.3 C 0 km/h
721 27-05-2015 23:05:00 10.2 C 7.33 g/m*3 10.2 C 0 km/h
722 27-05-2015 23:10:00 10.2 C 7.33 g/m*3 10.2 C 0 km/h
723 27-05-2015 23:15:00 10.1 C 7.38 g/m*3 10.1 C 0 km/h
724 27-05-2015 23:20:00 9.9 C 7.28 g/m*3 9.9 C 0 km/h
725 27-05-2015 23:25:00 9.8 C 7.33 g/m*3 9.8 C 0 km/h
Sensor: Nr:Datum:Temp:Abs-Feuchte:Windchill:Wind:
Aussen-T/F 726 27-05-2015 23:30:00 9.7 C 7.19 g/m*3 9.7 C 1.6 km/h
727 27-05-2015 23:35:00 9.5 C 7.19 g/m*3 9.5 C 0 km/h
728 27-05-2015 23:40:00 9.3 C 7.1 g/m*3 9.3 C 1.6 km/h
729 27-05-2015 23:45:00 9.3 C 7.1 g/m*3 9.3 C 0 km/h
730 27-05-2015 23:50:00 9.2 C 7.14 g/m*3 9.2 C 0 km/h
731 27-05-2015 23:55:00 9.2 C 7.14 g/m*3 9.2 C 0 km/h
732 28-05-2015 00:00:00 9.1 C 7.1 g/m*3 9.1 C 0 km/h
733 28-05-2015 00:05:00 9.1 C 7.19 g/m*3 9.1 C 0 km/h
734 28-05-2015 00:10:00 9.1 C 7.19 g/m*3 9.1 C 0 km/h
735 28-05-2015 00:15:00 9.1 C 7.19 g/m*3 9.1 C 0 km/h
736 28-05-2015 00:20:00 9.1 C 7.19 g/m*3 9.1 C 0 km/h
737 28-05-2015 00:25:00 9.1 C 7.19 g/m*3 9.1 C 0 km/h
738 28-05-2015 00:30:00 9 C 7.05 g/m*3 9 C 0 km/h
739 28-05-2015 00:35:00 9 C 7.14 g/m*3 9 C 0 km/h
740 28-05-2015 00:40:00 9 C 7.14 g/m*3 9 C 0 km/h
741 28-05-2015 00:45:00 9.2 C 7.14 g/m*3 9.2 C 0 km/h
742 28-05-2015 00:50:00 9.2 C 7.14 g/m*3 9.2 C 0 km/h
743 28-05-2015 00:55:00 9.2 C 7.14 g/m*3 9.2 C 0 km/h
744 28-05-2015 01:00:00 9.2 C 7.14 g/m*3 9.2 C 0 km/h
745 28-05-2015 01:05:00 9.2 C 7.14 g/m*3 9.2 C 0 km/h
746 28-05-2015 01:10:00 9.2 C 7.14 g/m*3 9.2 C 0 km/h
747 28-05-2015 01:15:00 9.1 C 7.1 g/m*3 9.1 C 0 km/h
748 28-05-2015 01:20:00 9 C 7.05 g/m*3 9 C 0 km/h
749 28-05-2015 01:25:00 8.9 C 7.01 g/m*3 8.9 C 0 km/h
750 28-05-2015 01:30:00 8.8 C 6.96 g/m*3 8.8 C 0 km/h
Sensor: Nr:Datum:Temp:Abs-Feuchte:Windchill:Wind:
Aussen-T/F 751 28-05-2015 01:35:00 8.7 C 7.01 g/m*3 8.7 C 0 km/h
752 28-05-2015 01:40:00 8.7 C 7.01 g/m*3 8.7 C 0 km/h
753 28-05-2015 01:45:00 8.6 C 7.05 g/m*3 8.6 C 0 km/h
754 28-05-2015 01:50:00 8.4 C 6.96 g/m*3 8.4 C 0 km/h
755 28-05-2015 01:55:00 8.4 C 6.96 g/m*3 8.4 C 0 km/h
756 28-05-2015 02:00:00 8.3 C 6.91 g/m*3 8.3 C 0 km/h
757 28-05-2015 02:05:00 8.2 C 6.95 g/m*3 8.2 C 0 km/h
758 28-05-2015 02:10:00 8.2 C 6.95 g/m*3 8.2 C 0 km/h
759 28-05-2015 02:15:00 8.1 C 6.91 g/m*3 8.1 C 0 km/h
760 28-05-2015 02:20:00 8.1 C 6.91 g/m*3 8.1 C 0 km/h
761 28-05-2015 02:25:00 8 C 6.86 g/m*3 8 C 0 km/h
762 28-05-2015 02:30:00 7.9 C 6.9 g/m*3 7.9 C 0 km/h
763 28-05-2015 02:35:00 7.8 C 6.86 g/m*3 7.8 C 0 km/h
764 28-05-2015 02:40:00 7.8 C 6.86 g/m*3 7.8 C 0 km/h
765 28-05-2015 02:45:00 7.8 C 6.86 g/m*3 7.8 C 0 km/h
766 28-05-2015 02:50:00 7.8 C 6.86 g/m*3 7.8 C 0 km/h
767 28-05-2015 02:55:00 7.8 C 6.86 g/m*3 7.8 C 0 km/h
768 28-05-2015 03:00:00 7.8 C 6.86 g/m*3 7.8 C 0 km/h
769 28-05-2015 03:05:00 7.8 C 6.86 g/m*3 7.8 C 0 km/h
770 28-05-2015 03:10:00 7.8 C 6.94 g/m*3 7.8 C 0 km/h
771 28-05-2015 03:15:00 7.7 C 6.89 g/m*3 7.7 C 0 km/h
772 28-05-2015 03:20:00 7.7 C 6.89 g/m*3 7.7 C 0 km/h
773 28-05-2015 03:25:00 7.7 C 6.89 g/m*3 7.7 C 0 km/h
774 28-05-2015 03:30:00 7.6 C 6.85 g/m*3 7.6 C 0 km/h
775 28-05-2015 03:35:00 7.5 C 6.8 g/m*3 7.5 C 0 km/h
Sensor: Nr:Datum:Temp:Abs-Feuchte:Windchill:Wind:
Aussen-T/F 776 28-05-2015 03:40:00 7.5 C 6.8 g/m*3 7.5 C 0 km/h
777 28-05-2015 03:45:00 7.4 C 6.84 g/m*3 7.4 C 0 km/h
778 28-05-2015 03:50:00 7.4 C 6.84 g/m*3 7.4 C 0 km/h
779 28-05-2015 03:55:00 7.4 C 6.84 g/m*3 7.4 C 0 km/h
780 28-05-2015 04:00:00 7.4 C 6.92 g/m*3 7.4 C 0 km/h
781 28-05-2015 04:05:00 7.4 C 6.92 g/m*3 7.4 C 0 km/h
782 28-05-2015 04:10:00 7.3 C 6.79 g/m*3 7.3 C 0 km/h
783 28-05-2015 04:15:00 7.3 C 6.87 g/m*3 7.3 C 0 km/h
784 28-05-2015 04:20:00 7.3 C 6.87 g/m*3 7.3 C 0 km/h
785 28-05-2015 04:25:00 7.3 C 6.87 g/m*3 7.3 C 0 km/h
786 28-05-2015 04:30:00 7.3 C 6.95 g/m*3 7.3 C 0 km/h
787 28-05-2015 04:35:00 7.3 C 6.95 g/m*3 7.3 C 0 km/h
788 28-05-2015 04:40:00 7.3 C 6.95 g/m*3 7.3 C 0 km/h
789 28-05-2015 04:45:00 7.4 C 7 g/m*3 7.4 C 0 km/h
790 28-05-2015 04:50:00 7.4 C 7 g/m*3 7.4 C 0 km/h
791 28-05-2015 04:55:00 7.4 C 7 g/m*3 7.4 C 0 km/h
792 28-05-2015 05:00:00 7.4 C 7 g/m*3 7.4 C 0 km/h
793 28-05-2015 05:05:00 7.4 C 7 g/m*3 7.4 C 0 km/h
794 28-05-2015 05:10:00 7.4 C 7 g/m*3 7.4 C 0 km/h
795 28-05-2015 05:15:00 7.3 C 6.95 g/m*3 7.3 C 0 km/h
796 28-05-2015 05:20:00 7.3 C 7.03 g/m*3 7.3 C 0 km/h
797 28-05-2015 05:25:00 7.3 C 7.03 g/m*3 7.3 C 0 km/h
798 28-05-2015 05:30:00 7.3 C 7.03 g/m*3 7.3 C 0 km/h
799 28-05-2015 05:35:00 7.3 C 7.03 g/m*3 7.3 C 1.6 km/h
800 28-05-2015 05:40:00 7.3 C 7.03 g/m*3 7.3 C 1.6 km/h
Sensor: Nr:Datum:Temp:Abs-Feuchte:Windchill:Wind:
Aussen-T/F 801 28-05-2015 05:45:00 7.4 C 7.16 g/m*3 7.4 C 0 km/h
802 28-05-2015 05:50:00 7.5 C 7.2 g/m*3 7.5 C 0 km/h
803 28-05-2015 05:55:00 7.7 C 7.22 g/m*3 7.7 C 1.6 km/h
804 28-05-2015 06:00:00 7.8 C 7.26 g/m*3 7.8 C 3.2 km/h
805 28-05-2015 06:05:00 7.9 C 7.31 g/m*3 7.9 C 1.6 km/h
806 28-05-2015 06:10:00 8.1 C 7.32 g/m*3 8.1 C 0 km/h
807 28-05-2015 06:15:00 8.1 C 7.32 g/m*3 8.1 C 1.6 km/h
808 28-05-2015 06:20:00 8.2 C 7.29 g/m*3 8.2 C 1.6 km/h
809 28-05-2015 06:25:00 8.3 C 7.33 g/m*3 8.3 C 0 km/h
810 28-05-2015 06:30:00 8.3 C 7.33 g/m*3 8.3 C 0 km/h
811 28-05-2015 06:35:00 8.4 C 7.38 g/m*3 8.4 C 0 km/h
812 28-05-2015 06:40:00 8.5 C 7.43 g/m*3 8.5 C 0 km/h
813 28-05-2015 06:45:00 8.6 C 7.48 g/m*3 8.6 C 0 km/h
814 28-05-2015 06:50:00 8.7 C 7.52 g/m*3 8.7 C 0 km/h
815 28-05-2015 06:55:00 8.8 C 7.57 g/m*3 8.8 C 0 km/h
816 28-05-2015 07:00:00 8.8 C 7.57 g/m*3 8.8 C 0 km/h
817 28-05-2015 07:05:00 8.9 C 7.62 g/m*3 8.9 C 0 km/h
818 28-05-2015 07:10:00 8.9 C 7.62 g/m*3 8.9 C 0 km/h
819 28-05-2015 07:15:00 9.1 C 7.72 g/m*3 9.1 C 1.6 km/h
820 28-05-2015 07:20:00 9.1 C 7.72 g/m*3 9.1 C 0 km/h
821 28-05-2015 07:25:00 9.2 C 7.77 g/m*3 9.2 C 0 km/h
822 28-05-2015 07:30:00 9.3 C 7.82 g/m*3 9.3 C 0 km/h
823 28-05-2015 07:35:00 9.5 C 7.83 g/m*3 9.5 C 0 km/h
824 28-05-2015 07:40:00 9.6 C 7.88 g/m*3 9.6 C 1.6 km/h
825 28-05-2015 07:45:00 9.8 C 7.98 g/m*3 9.8 C 3.2 km/h
Sensor: Nr:Datum:Temp:Abs-Feuchte:Windchill:Wind:
Aussen-T/F 826 28-05-2015 07:50:00 10 C 7.99 g/m*3 10 C 3.2 km/h
827 28-05-2015 07:55:00 10.1 C 7.94 g/m*3 10.1 C 1.6 km/h
828 28-05-2015 08:00:00 10.2 C 7.99 g/m*3 10.2 C 0 km/h
829 28-05-2015 08:05:00 10.4 C 8.1 g/m*3 10.4 C 0 km/h
830 28-05-2015 08:10:00 10.7 C 8.25 g/m*3 10.7 C 0 km/h
831 28-05-2015 08:15:00 11 C 8.01 g/m*3 11 C 1.6 km/h
832 28-05-2015 08:20:00 11.3 C 8.16 g/m*3 11.3 C 0 km/h
833 28-05-2015 08:25:00 11.5 C 7.95 g/m*3 11.5 C 0 km/h
834 28-05-2015 08:30:00 11.6 C 8 g/m*3 11.6 C 1.6 km/h
835 28-05-2015 08:35:00 11.6 C 8.11 g/m*3 11.6 C 0 km/h
836 28-05-2015 08:40:00 11.7 C 8.16 g/m*3 11.7 C 0 km/h
837 28-05-2015 08:45:00 11.7 C 8.16 g/m*3 11.7 C 0 km/h
838 28-05-2015 08:50:00 11.8 C 8.21 g/m*3 11.8 C 0 km/h
839 28-05-2015 08:55:00 11.8 C 8.1 g/m*3 11.8 C 0 km/h
840 28-05-2015 09:00:00 11.9 C 8.15 g/m*3 11.9 C 1.6 km/h
841 28-05-2015 09:05:00 12.1 C 8.26 g/m*3 12.1 C 1.6 km/h
842 28-05-2015 09:10:00 12.1 C 8.15 g/m*3 12.1 C 0 km/h
843 28-05-2015 09:15:00 12.2 C 8.31 g/m*3 12.2 C 0 km/h
844 28-05-2015 09:20:00 12.3 C 8.14 g/m*3 12.3 C 1.6 km/h
845 28-05-2015 09:25:00 12.3 C 8.47 g/m*3 12.3 C 0 km/h
846 28-05-2015 09:30:00 12.3 C 8.36 g/m*3 12.3 C 0 km/h
847 28-05-2015 09:35:00 12.3 C 8.47 g/m*3 12.3 C 0 km/h
848 28-05-2015 09:40:00 12.4 C 8.52 g/m*3 12.4 C 0 km/h
849 28-05-2015 09:45:00 12.6 C 8.52 g/m*3 12.6 C 1.6 km/h
850 28-05-2015 09:50:00 12.8 C 8.74 g/m*3 12.8 C 1.6 km/h
Sensor: Nr:Datum:Temp:Abs-Feuchte:Windchill:Wind:
Aussen-T/F 851 28-05-2015 09:55:00 12.9 C 8.45 g/m*3 12.9 C 1.6 km/h
852 28-05-2015 10:00:00 13.1 C 8.56 g/m*3 13.1 C 1.6 km/h
853 28-05-2015 10:05:00 13.2 C 8.61 g/m*3 13.2 C 1.6 km/h
854 28-05-2015 10:10:00 13.4 C 8.72 g/m*3 13.4 C 1.6 km/h
855 28-05-2015 10:15:00 13.7 C 8.76 g/m*3 13.7 C 1.6 km/h
856 28-05-2015 10:20:00 13.9 C 8.75 g/m*3 13.9 C 6.4 km/h
857 28-05-2015 10:25:00 14.3 C 8.85 g/m*3 14.3 C 4.8 km/h
858 28-05-2015 10:30:00 14.7 C 8.94 g/m*3 14.7 C 6.4 km/h
859 28-05-2015 10:35:00 15.1 C 8.77 g/m*3 15.1 C 6.4 km/h
860 28-05-2015 10:40:00 15.3 C 8.88 g/m*3 15.3 C 1.6 km/h
861 28-05-2015 10:45:00 15.7 C 9.1 g/m*3 15.7 C 3.2 km/h
862 28-05-2015 10:50:00 16.1 C 9.05 g/m*3 16.1 C 11.3 km/h
863 28-05-2015 10:55:00 16.3 C 9.02 g/m*3 16.3 C 12.9 km/h
864 28-05-2015 11:00:00 16.7 C 9.1 g/m*3 16.7 C 12.9 km/h
865 28-05-2015 11:05:00 17 C 9.12 g/m*3 17 C 9.7 km/h
866 28-05-2015 11:10:00 17.3 C 8.99 g/m*3 17.3 C 14.5 km/h
867 28-05-2015 11:15:00 17.5 C 9.09 g/m*3 17.5 C 11.3 km/h
868 28-05-2015 11:20:00 17.7 C 9.2 g/m*3 17.7 C 9.7 km/h
869 28-05-2015 11:25:00 17.8 C 9.11 g/m*3 17.8 C 14.5 km/h
870 28-05-2015 11:30:00 17.9 C 9.16 g/m*3 17.9 C 9.7 km/h
871 28-05-2015 11:35:00 17.9 C 9.16 g/m*3 17.9 C 9.7 km/h
872 28-05-2015 11:40:00 18.1 C 9.12 g/m*3 18.1 C 14.5 km/h
873 28-05-2015 11:45:00 18.2 C 9.33 g/m*3 18.2 C 9.7 km/h
874 28-05-2015 11:50:00 18.3 C 9.22 g/m*3 18.3 C 16.1 km/h
875 28-05-2015 11:55:00 18.3 C 9.22 g/m*3 18.3 C 14.5 km/h
Sensor: Nr:Datum:Temp:Abs-Feuchte:Windchill:Wind:
Aussen-T/F 876 28-05-2015 12:00:00 18.4 C 9.44 g/m*3 18.4 C 9.7 km/h
877 28-05-2015 12:05:00 18.7 C 9.45 g/m*3 18.7 C 9.7 km/h
878 28-05-2015 12:10:00 18.9 C 9.4 g/m*3 18.9 C 17.7 km/h
879 28-05-2015 12:15:00 19.1 C 9.51 g/m*3 19.1 C 19.3 km/h
880 28-05-2015 12:20:00 19.2 C 9.73 g/m*3 19.2 C 9.7 km/h
881 28-05-2015 12:25:00 19.3 C 9.45 g/m*3 19.3 C 8.1 km/h
882 28-05-2015 12:30:00 19.4 C 9.51 g/m*3 19.4 C 14.5 km/h
883 28-05-2015 12:35:00 19.5 C 9.4 g/m*3 19.5 C 8.1 km/h
884 28-05-2015 12:40:00 19.6 C 9.62 g/m*3 19.6 C 9.7 km/h
885 28-05-2015 12:45:00 19.5 C 9.73 g/m*3 19.5 C 8.1 km/h
886 28-05-2015 12:50:00 19.7 C 9.51 g/m*3 19.7 C 12.9 km/h
887 28-05-2015 12:55:00 19.9 C 9.45 g/m*3 19.9 C 12.9 km/h
888 28-05-2015 13:00:00 20.4 C 10.08 g/m*3 20.4 C 11.3 km/h
889 28-05-2015 13:05:00 21.1 C 9.58 g/m*3 21.1 C 16.1 km/h
890 28-05-2015 13:10:00 21.3 C 9.51 g/m*3 21.3 C 19.3 km/h
891 28-05-2015 13:15:00 21.3 C 9.32 g/m*3 21.3 C 16.1 km/h
892 28-05-2015 13:20:00 21.4 C 9.37 g/m*3 21.4 C 12.9 km/h
893 28-05-2015 13:25:00 21.4 C 9.37 g/m*3 21.4 C 14.5 km/h
894 28-05-2015 13:30:00 21.4 C 9.56 g/m*3 21.4 C 12.9 km/h
895 28-05-2015 13:35:00 21.3 C 9.51 g/m*3 21.3 C 14.5 km/h
896 28-05-2015 13:40:00 21.1 C 8.84 g/m*3 21.1 C 14.5 km/h
897 28-05-2015 13:45:00 20.8 C 8.87 g/m*3 20.8 C 16.1 km/h
898 28-05-2015 13:50:00 20.7 C 9.18 g/m*3 20.7 C 11.3 km/h
899 28-05-2015 13:55:00 20.6 C 8.95 g/m*3 20.6 C 19.3 km/h
900 28-05-2015 14:00:00 20.4 C 9.02 g/m*3 20.4 C 12.9 km/h
Sensor: Nr:Datum:Temp:Abs-Feuchte:Windchill:Wind:
Aussen-T/F 901 28-05-2015 14:05:00 20 C 8.99 g/m*3 20 C 12.9 km/h
902 28-05-2015 14:10:00 19.7 C 8.83 g/m*3 19.7 C 11.3 km/h
903 28-05-2015 14:15:00 19.4 C 9.01 g/m*3 19.4 C 14.5 km/h
904 28-05-2015 14:20:00 19.2 C 8.9 g/m*3 19.2 C 4.8 km/h
905 28-05-2015 14:25:00 19 C 8.96 g/m*3 19 C 4.8 km/h
906 28-05-2015 14:30:00 18.9 C 9.07 g/m*3 18.9 C 11.3 km/h
907 28-05-2015 14:35:00 18.8 C 9.02 g/m*3 18.8 C 3.2 km/h
908 28-05-2015 14:40:00 18.7 C 9.13 g/m*3 18.7 C 8.1 km/h
909 28-05-2015 14:45:00 18.6 C 9.39 g/m*3 18.6 C 1.6 km/h
910 28-05-2015 14:50:00 18.5 C 9.18 g/m*3 18.5 C 12.9 km/h
911 28-05-2015 14:55:00 18.6 C 9.23 g/m*3 18.6 C 12.9 km/h
912 28-05-2015 15:00:00 18.6 C 9.39 g/m*3 18.6 C 4.8 km/h
913 28-05-2015 15:05:00 18.6 C 9.55 g/m*3 18.6 C 3.2 km/h
914 28-05-2015 15:10:00 18.6 C 9.87 g/m*3 18.6 C 1.6 km/h
915 28-05-2015 15:15:00 18.6 C 9.55 g/m*3 18.6 C 1.6 km/h
916 28-05-2015 15:20:00 18.7 C 9.45 g/m*3 18.7 C 3.2 km/h
917 28-05-2015 15:25:00 18.9 C 9.4 g/m*3 18.9 C 3.2 km/h
918 28-05-2015 15:30:00 19.2 C 9.73 g/m*3 19.2 C 6.4 km/h
919 28-05-2015 15:35:00 19.3 C 9.29 g/m*3 19.3 C 12.9 km/h
920 28-05-2015 15:40:00 19.4 C 9.34 g/m*3 19.4 C 1.6 km/h
921 28-05-2015 15:45:00 19.6 C 9.45 g/m*3 19.6 C 9.7 km/h
922 28-05-2015 15:50:00 20 C 9.33 g/m*3 20 C 17.7 km/h
923 28-05-2015 15:55:00 20.3 C 9.32 g/m*3 20.3 C 14.5 km/h
924 28-05-2015 16:00:00 20.3 C 8.97 g/m*3 20.3 C 17.7 km/h
925 28-05-2015 16:05:00 20 C 9.16 g/m*3 20 C 12.9 km/h
Sensor: Nr:Datum:Temp:Abs-Feuchte:Windchill:Wind:
Aussen-T/F 926 28-05-2015 16:10:00 19.7 C 9.51 g/m*3 19.7 C 12.9 km/h
927 28-05-2015 16:15:00 19.4 C 9.68 g/m*3 19.4 C 6.4 km/h
928 28-05-2015 16:20:00 19.4 C 9.68 g/m*3 19.4 C 6.4 km/h
929 28-05-2015 16:25:00 19.7 C 9.51 g/m*3 19.7 C 16.1 km/h
930 28-05-2015 16:30:00 19.8 C 9.39 g/m*3 19.8 C 14.5 km/h
931 28-05-2015 16:35:00 19.7 C 9.34 g/m*3 19.7 C 17.7 km/h
932 28-05-2015 16:40:00 19.6 C 9.45 g/m*3 19.6 C 9.7 km/h
933 28-05-2015 16:45:00 19.4 C 9.18 g/m*3 19.4 C 14.5 km/h
934 28-05-2015 16:50:00 19.3 C 9.45 g/m*3 19.3 C 14.5 km/h
935 28-05-2015 16:55:00 19.3 C 9.29 g/m*3 19.3 C 4.8 km/h
936 28-05-2015 17:00:00 19.5 C 9.4 g/m*3 19.5 C 9.7 km/h
937 28-05-2015 17:05:00 19.8 C 9.39 g/m*3 19.8 C 12.9 km/h
938 28-05-2015 17:10:00 20 C 9.33 g/m*3 20 C 12.9 km/h
939 28-05-2015 17:15:00 20.2 C 9.44 g/m*3 20.2 C 8.1 km/h
940 28-05-2015 17:20:00 20.1 C 9.21 g/m*3 20.1 C 11.3 km/h
941 28-05-2015 17:25:00 20.1 C 9.39 g/m*3 20.1 C 12.9 km/h
942 28-05-2015 17:30:00 20.1 C 9.39 g/m*3 20.1 C 9.7 km/h
943 28-05-2015 17:35:00 20.1 C 9.56 g/m*3 20.1 C 11.3 km/h
944 28-05-2015 17:40:00 20 C 9.51 g/m*3 20 C 6.4 km/h
945 28-05-2015 17:45:00 20.2 C 9.62 g/m*3 20.2 C 9.7 km/h
946 28-05-2015 17:50:00 20.4 C 9.55 g/m*3 20.4 C 9.7 km/h
947 28-05-2015 17:55:00 20.3 C 9.85 g/m*3 20.3 C 9.7 km/h
948 28-05-2015 18:00:00 20.6 C 9.66 g/m*3 20.6 C 9.7 km/h
949 28-05-2015 18:05:00 20.4 C 9.55 g/m*3 20.4 C 1.6 km/h
950 28-05-2015 18:10:00 20.2 C 9.62 g/m*3 20.2 C 6.4 km/h
Sensor: Nr:Datum:Temp:Abs-Feuchte:Windchill:Wind:
Aussen-T/F 951 28-05-2015 18:15:00 19.9 C 9.45 g/m*3 19.9 C 9.7 km/h
952 28-05-2015 18:20:00 19.6 C 9.45 g/m*3 19.6 C 8.1 km/h
953 28-05-2015 18:25:00 19.5 C 9.73 g/m*3 19.5 C 6.4 km/h
954 28-05-2015 18:30:00 19.7 C 9.51 g/m*3 19.7 C 12.9 km/h
955 28-05-2015 18:35:00 20.1 C 9.21 g/m*3 20.1 C 11.3 km/h
956 28-05-2015 18:40:00 20.6 C 8.59 g/m*3 20.6 C 14.5 km/h
957 28-05-2015 18:45:00 20.7 C 8.46 g/m*3 20.7 C 14.5 km/h
958 28-05-2015 18:50:00 20.3 C 8.44 g/m*3 20.3 C 9.7 km/h
959 28-05-2015 18:55:00 19.9 C 8.59 g/m*3 19.9 C 12.9 km/h
960 28-05-2015 19:00:00 19.7 C 8.83 g/m*3 19.7 C 9.7 km/h
961 28-05-2015 19:05:00 19.4 C 8.84 g/m*3 19.4 C 12.9 km/h
962 28-05-2015 19:10:00 19.3 C 8.79 g/m*3 19.3 C 19.3 km/h
963 28-05-2015 19:15:00 19.2 C 8.9 g/m*3 19.2 C 12.9 km/h
964 28-05-2015 19:20:00 19.2 C 8.9 g/m*3 19.2 C 12.9 km/h
965 28-05-2015 19:25:00 19.1 C 8.69 g/m*3 19.1 C 14.5 km/h
966 28-05-2015 19:30:00 19 C 8.8 g/m*3 19 C 17.7 km/h
967 28-05-2015 19:35:00 18.8 C 8.7 g/m*3 18.8 C 14.5 km/h
968 28-05-2015 19:40:00 18.7 C 8.81 g/m*3 18.7 C 12.9 km/h
969 28-05-2015 19:45:00 18.6 C 8.91 g/m*3 18.6 C 12.9 km/h
970 28-05-2015 19:50:00 18.5 C 8.86 g/m*3 18.5 C 12.9 km/h
971 28-05-2015 19:55:00 18.5 C 8.7 g/m*3 18.5 C 12.9 km/h
972 28-05-2015 20:00:00 18.5 C 8.7 g/m*3 18.5 C 9.7 km/h
973 28-05-2015 20:05:00 18.4 C 8.81 g/m*3 18.4 C 9.7 km/h
974 28-05-2015 20:10:00 18.2 C 8.7 g/m*3 18.2 C 9.7 km/h
975 28-05-2015 20:15:00 17.9 C 8.55 g/m*3 17.9 C 11.3 km/h
Sensor: Nr:Datum:Temp:Abs-Feuchte:Windchill:Wind:
Aussen-T/F 976 28-05-2015 20:20:00 17.7 C 8.45 g/m*3 17.7 C 8.1 km/h
977 28-05-2015 20:25:00 17.6 C 8.4 g/m*3 17.6 C 11.3 km/h
978 28-05-2015 20:30:00 17.4 C 8.45 g/m*3 17.4 C 6.4 km/h
979 28-05-2015 20:35:00 17.3 C 8.54 g/m*3 17.3 C 6.4 km/h
980 28-05-2015 20:40:00 17.1 C 8.44 g/m*3 17.1 C 4.8 km/h
981 28-05-2015 20:45:00 17.1 C 8.59 g/m*3 17.1 C 8.1 km/h
982 28-05-2015 20:50:00 16.9 C 8.49 g/m*3 16.9 C 1.6 km/h
983 28-05-2015 20:55:00 16.8 C 8.44 g/m*3 16.8 C 1.6 km/h
984 28-05-2015 21:00:00 16.7 C 8.53 g/m*3 16.7 C 1.6 km/h
985 28-05-2015 21:05:00 16.5 C 8.85 g/m*3 16.5 C 1.6 km/h
986 28-05-2015 21:10:00 16.3 C 8.6 g/m*3 16.3 C 1.6 km/h
987 28-05-2015 21:15:00 16.1 C 8.64 g/m*3 16.1 C 1.6 km/h
988 28-05-2015 21:20:00 16 C 8.58 g/m*3 16 C 1.6 km/h
989 28-05-2015 21:25:00 15.9 C 8.53 g/m*3 15.9 C 1.6 km/h
990 28-05-2015 21:30:00 15.9 C 8.53 g/m*3 15.9 C 1.6 km/h
991 28-05-2015 21:35:00 15.8 C 8.48 g/m*3 15.8 C 1.6 km/h
992 28-05-2015 21:40:00 15.8 C 8.62 g/m*3 15.8 C 1.6 km/h
993 28-05-2015 21:45:00 15.7 C 8.43 g/m*3 15.7 C 1.6 km/h
994 28-05-2015 21:50:00 15.6 C 8.64 g/m*3 15.6 C 1.6 km/h
995 28-05-2015 21:55:00 15.5 C 8.46 g/m*3 15.5 C 1.6 km/h
996 28-05-2015 22:00:00 15.4 C 8.54 g/m*3 15.4 C 3.2 km/h
997 28-05-2015 22:05:00 15.3 C 8.49 g/m*3 15.3 C 4.8 km/h
998 28-05-2015 22:10:00 15.3 C 8.62 g/m*3 15.3 C 3.2 km/h
999 28-05-2015 22:15:00 15.2 C 8.57 g/m*3 15.2 C 3.2 km/h
1000 28-05-2015 22:20:00 15.1 C 8.64 g/m*3 15.1 C 0 km/h
Sensor: Nr:Datum:Temp:Abs-Feuchte:Windchill:Wind:
Aussen-T/F 1001 28-05-2015 22:25:00 14.9 C 8.54 g/m*3 14.9 C 0 km/h
1002 28-05-2015 22:30:00 14.7 C 8.69 g/m*3 14.7 C 1.6 km/h
1003 28-05-2015 22:35:00 14.6 C 8.76 g/m*3 14.6 C 1.6 km/h
1004 28-05-2015 22:40:00 14.5 C 8.58 g/m*3 14.5 C 1.6 km/h
1005 28-05-2015 22:45:00 14.4 C 8.65 g/m*3 14.4 C 0 km/h
1006 28-05-2015 22:50:00 14.3 C 8.6 g/m*3 14.3 C 0 km/h
1007 28-05-2015 22:55:00 14.2 C 8.55 g/m*3 14.2 C 1.6 km/h
1008 28-05-2015 23:00:00 14.1 C 8.74 g/m*3 14.1 C 0 km/h
1009 28-05-2015 23:05:00 13.9 C 8.75 g/m*3 13.9 C 0 km/h
1010 28-05-2015 23:10:00 13.7 C 8.64 g/m*3 13.7 C 1.6 km/h
1011 28-05-2015 23:15:00 13.6 C 8.71 g/m*3 13.6 C 1.6 km/h
1012 28-05-2015 23:20:00 13.6 C 8.71 g/m*3 13.6 C 0 km/h
1013 28-05-2015 23:25:00 13.6 C 8.71 g/m*3 13.6 C 0 km/h
1014 28-05-2015 23:30:00 13.6 C 8.71 g/m*3 13.6 C 0 km/h
1015 28-05-2015 23:35:00 13.5 C 8.77 g/m*3 13.5 C 0 km/h
1016 28-05-2015 23:40:00 13.4 C 8.83 g/m*3 13.4 C 0 km/h
1017 28-05-2015 23:45:00 13.3 C 8.78 g/m*3 13.3 C 0 km/h
1018 28-05-2015 23:50:00 13.3 C 8.78 g/m*3 13.3 C 0 km/h
1019 28-05-2015 23:55:00 13.3 C 8.78 g/m*3 13.3 C 0 km/h
1020 29-05-2015 00:00:00 13.3 C 8.78 g/m*3 13.3 C 1.6 km/h
1021 29-05-2015 00:05:00 13.3 C 8.9 g/m*3 13.3 C 0 km/h
1022 29-05-2015 00:10:00 13.3 C 8.9 g/m*3 13.3 C 3.2 km/h
1023 29-05-2015 00:15:00 13.3 C 8.9 g/m*3 13.3 C 0 km/h
1024 29-05-2015 00:20:00 13.3 C 8.9 g/m*3 13.3 C 0 km/h
1025 29-05-2015 00:25:00 13.3 C 9.01 g/m*3 13.3 C 0 km/h
Sensor: Nr:Datum:Temp:Abs-Feuchte:Windchill:Wind:
Aussen-T/F 1026 29-05-2015 00:30:00 13.3 C 9.13 g/m*3 13.3 C 0 km/h
1027 29-05-2015 00:35:00 13.2 C 9.07 g/m*3 13.2 C 0 km/h
1028 29-05-2015 00:40:00 13.2 C 9.07 g/m*3 13.2 C 0 km/h
1029 29-05-2015 00:45:00 13.2 C 9.19 g/m*3 13.2 C 0 km/h
1030 29-05-2015 00:50:00 13.1 C 9.13 g/m*3 13.1 C 0 km/h
1031 29-05-2015 00:55:00 13.1 C 9.13 g/m*3 13.1 C 0 km/h
1032 29-05-2015 01:00:00 13 C 9.07 g/m*3 13 C 0 km/h
1033 29-05-2015 01:05:00 12.9 C 9.02 g/m*3 12.9 C 0 km/h
1034 29-05-2015 01:10:00 12.8 C 8.85 g/m*3 12.8 C 0 km/h
1035 29-05-2015 01:15:00 12.7 C 8.91 g/m*3 12.7 C 0 km/h
1036 29-05-2015 01:20:00 12.5 C 8.8 g/m*3 12.5 C 0 km/h
1037 29-05-2015 01:25:00 12.3 C 8.8 g/m*3 12.3 C 1.6 km/h
1038 29-05-2015 01:30:00 12.2 C 8.74 g/m*3 12.2 C 1.6 km/h
1039 29-05-2015 01:35:00 12 C 8.74 g/m*3 12 C 1.6 km/h
1040 29-05-2015 01:40:00 11.9 C 8.68 g/m*3 11.9 C 0 km/h
1041 29-05-2015 01:45:00 11.9 C 8.68 g/m*3 11.9 C 1.6 km/h
1042 29-05-2015 01:50:00 12 C 8.74 g/m*3 12 C 1.6 km/h
1043 29-05-2015 01:55:00 12.1 C 8.69 g/m*3 12.1 C 1.6 km/h
1044 29-05-2015 02:00:00 12.2 C 8.63 g/m*3 12.2 C 1.6 km/h
1045 29-05-2015 02:05:00 12.4 C 8.3 g/m*3 12.4 C 4.8 km/h
1046 29-05-2015 02:10:00 12.7 C 8.24 g/m*3 12.7 C 3.2 km/h
1047 29-05-2015 02:15:00 12.8 C 8.18 g/m*3 12.8 C 3.2 km/h
1048 29-05-2015 02:20:00 12.8 C 8.06 g/m*3 12.8 C 1.6 km/h
1049 29-05-2015 02:25:00 12.8 C 7.95 g/m*3 12.8 C 1.6 km/h
1050 29-05-2015 02:30:00 12.8 C 7.95 g/m*3 12.8 C 1.6 km/h
Sensor: Nr:Datum:Temp:Abs-Feuchte:Windchill:Wind:
Aussen-T/F 1051 29-05-2015 02:35:00 12.7 C 8.01 g/m*3 12.7 C 1.6 km/h
1052 29-05-2015 02:40:00 12.6 C 8.19 g/m*3 12.6 C 1.6 km/h
1053 29-05-2015 02:45:00 12.4 C 8.09 g/m*3 12.4 C 1.6 km/h
1054 29-05-2015 02:50:00 12.3 C 8.14 g/m*3 12.3 C 1.6 km/h
1055 29-05-2015 02:55:00 12.1 C 8.15 g/m*3 12.1 C 1.6 km/h
1056 29-05-2015 03:00:00 11.9 C 8.15 g/m*3 11.9 C 1.6 km/h
1057 29-05-2015 03:05:00 11.8 C 8 g/m*3 11.8 C 0 km/h
1058 29-05-2015 03:10:00 11.8 C 7.89 g/m*3 11.8 C 1.6 km/h
1059 29-05-2015 03:15:00 11.7 C 8.05 g/m*3 11.7 C 0 km/h
1060 29-05-2015 03:20:00 11.6 C 7.9 g/m*3 11.6 C 0 km/h
1061 29-05-2015 03:25:00 11.3 C 7.85 g/m*3 11.3 C 1.6 km/h
1062 29-05-2015 03:30:00 11.2 C 7.91 g/m*3 11.2 C 0 km/h
1063 29-05-2015 03:35:00 11 C 7.81 g/m*3 11 C 0 km/h
1064 29-05-2015 03:40:00 10.8 C 7.81 g/m*3 10.8 C 0 km/h
1065 29-05-2015 03:45:00 10.7 C 7.76 g/m*3 10.7 C 0 km/h
1066 29-05-2015 03:50:00 10.4 C 7.61 g/m*3 10.4 C 0 km/h
1067 29-05-2015 03:55:00 10.4 C 7.61 g/m*3 10.4 C 1.6 km/h
1068 29-05-2015 04:00:00 10.3 C 7.66 g/m*3 10.3 C 0 km/h
1069 29-05-2015 04:05:00 10.2 C 7.61 g/m*3 10.2 C 0 km/h
1070 29-05-2015 04:10:00 10 C 7.61 g/m*3 10 C 0 km/h
1071 29-05-2015 04:15:00 9.8 C 7.52 g/m*3 9.8 C 0 km/h
1072 29-05-2015 04:20:00 9.7 C 7.47 g/m*3 9.7 C 0 km/h
1073 29-05-2015 04:25:00 9.4 C 7.42 g/m*3 9.4 C 0 km/h
1074 29-05-2015 04:30:00 9.3 C 7.37 g/m*3 9.3 C 0 km/h
1075 29-05-2015 04:35:00 9.2 C 7.41 g/m*3 9.2 C 0 km/h
Sensor: Nr:Datum:Temp:Abs-Feuchte:Windchill:Wind:
Aussen-T/F 1076 29-05-2015 04:40:00 9.1 C 7.36 g/m*3 9.1 C 0 km/h
1077 29-05-2015 04:45:00 9.1 C 7.36 g/m*3 9.1 C 0 km/h
1078 29-05-2015 04:50:00 9.1 C 7.45 g/m*3 9.1 C 4.8 km/h
1079 29-05-2015 04:55:00 9.1 C 7.45 g/m*3 9.1 C 3.2 km/h
1080 29-05-2015 05:00:00 9.1 C 7.45 g/m*3 9.1 C 1.6 km/h
1081 29-05-2015 05:05:00 8.9 C 7.36 g/m*3 8.9 C 0 km/h
1082 29-05-2015 05:10:00 8.9 C 7.45 g/m*3 8.9 C 1.6 km/h
1083 29-05-2015 05:15:00 8.9 C 7.45 g/m*3 8.9 C 1.6 km/h
1084 29-05-2015 05:20:00 8.9 C 7.53 g/m*3 8.9 C 0 km/h
1085 29-05-2015 05:25:00 8.8 C 7.49 g/m*3 8.8 C 0 km/h
1086 29-05-2015 05:30:00 8.8 C 7.49 g/m*3 8.8 C 0 km/h
1087 29-05-2015 05:35:00 8.7 C 7.52 g/m*3 8.7 C 1.6 km/h
1088 29-05-2015 05:40:00 8.8 C 7.57 g/m*3 8.8 C 0 km/h
1089 29-05-2015 05:45:00 8.8 C 7.49 g/m*3 8.8 C 0 km/h
1090 29-05-2015 05:50:00 8.8 C 7.49 g/m*3 8.8 C 0 km/h
1091 29-05-2015 05:55:00 8.8 C 7.49 g/m*3 8.8 C 1.6 km/h
1092 29-05-2015 06:00:00 8.7 C 7.52 g/m*3 8.7 C 3.2 km/h
1093 29-05-2015 06:05:00 8.7 C 7.52 g/m*3 8.7 C 1.6 km/h
1094 29-05-2015 06:10:00 8.6 C 7.48 g/m*3 8.6 C 0 km/h
1095 29-05-2015 06:15:00 8.6 C 7.56 g/m*3 8.6 C 0 km/h
1096 29-05-2015 06:20:00 8.5 C 7.51 g/m*3 8.5 C 0 km/h
1097 29-05-2015 06:25:00 8.5 C 7.51 g/m*3 8.5 C 0 km/h
1098 29-05-2015 06:30:00 8.6 C 7.65 g/m*3 8.6 C 3.2 km/h
1099 29-05-2015 06:35:00 8.7 C 7.7 g/m*3 8.7 C 3.2 km/h
1100 29-05-2015 06:40:00 8.8 C 7.75 g/m*3 8.8 C 0 km/h
Sensor: Nr:Datum:Temp:Abs-Feuchte:Windchill:Wind:
Aussen-T/F 1101 29-05-2015 06:45:00 8.9 C 7.8 g/m*3 8.9 C 1.6 km/h
1102 29-05-2015 06:50:00 9.1 C 7.9 g/m*3 7.93 C 8.1 km/h
1103 29-05-2015 06:55:00 9.2 C 7.86 g/m*3 8.05 C 8.1 km/h
1104 29-05-2015 07:00:00 9.2 C 7.86 g/m*3 8.05 C 8.1 km/h
1105 29-05-2015 07:05:00 9.2 C 7.86 g/m*3 9.2 C 3.2 km/h
1106 29-05-2015 07:10:00 9.2 C 7.86 g/m*3 9.2 C 1.6 km/h
1107 29-05-2015 07:15:00 9.2 C 7.86 g/m*3 9.2 C 3.2 km/h
1108 29-05-2015 07:20:00 9.2 C 7.86 g/m*3 9.2 C 1.6 km/h
1109 29-05-2015 07:25:00 9.3 C 7.91 g/m*3 9.3 C 3.2 km/h
1110 29-05-2015 07:30:00 9.4 C 7.96 g/m*3 9.4 C 4.8 km/h
1111 29-05-2015 07:35:00 9.4 C 7.96 g/m*3 8.28 C 8.1 km/h
1112 29-05-2015 07:40:00 9.6 C 8.06 g/m*3 9.6 C 4.8 km/h
1113 29-05-2015 07:45:00 9.7 C 8.11 g/m*3 9.02 C 6.4 km/h
1114 29-05-2015 07:50:00 9.8 C 8.16 g/m*3 9.8 C 1.6 km/h
1115 29-05-2015 07:55:00 9.9 C 8.12 g/m*3 9.9 C 3.2 km/h
1116 29-05-2015 08:00:00 10.1 C 8.23 g/m*3 10.1 C 1.6 km/h
1117 29-05-2015 08:05:00 10.4 C 8.38 g/m*3 10.4 C 4.8 km/h
1118 29-05-2015 08:10:00 10.6 C 8.39 g/m*3 10.6 C 1.6 km/h
1119 29-05-2015 08:15:00 10.8 C 8.4 g/m*3 10.8 C 0 km/h
1120 29-05-2015 08:20:00 10.9 C 8.36 g/m*3 10.9 C 0 km/h
1121 29-05-2015 08:25:00 11.2 C 8.51 g/m*3 11.2 C 1.6 km/h
1122 29-05-2015 08:30:00 11.4 C 8.52 g/m*3 11.4 C 1.6 km/h
1123 29-05-2015 08:35:00 11.8 C 8.63 g/m*3 11.8 C 3.2 km/h
1124 29-05-2015 08:40:00 12.1 C 8.58 g/m*3 12.1 C 4.8 km/h
1125 29-05-2015 08:45:00 12.4 C 8.52 g/m*3 12.4 C 4.8 km/h
Sensor: Nr:Datum:Temp:Abs-Feuchte:Windchill:Wind:
Aussen-T/F 1126 29-05-2015 08:50:00 12.7 C 8.35 g/m*3 12.7 C 6.4 km/h
1127 29-05-2015 08:55:00 12.8 C 8.29 g/m*3 12.8 C 6.4 km/h
1128 29-05-2015 09:00:00 13.1 C 8.33 g/m*3 13.1 C 8.1 km/h
1129 29-05-2015 09:05:00 13.3 C 8.32 g/m*3 13.3 C 6.4 km/h
1130 29-05-2015 09:10:00 13.5 C 8.3 g/m*3 13.5 C 8.1 km/h
1131 29-05-2015 09:15:00 13.7 C 8.29 g/m*3 13.7 C 9.7 km/h
1132 29-05-2015 09:20:00 13.7 C 8.17 g/m*3 13.7 C 9.7 km/h
1133 29-05-2015 09:25:00 13.8 C 8.34 g/m*3 13.8 C 8.1 km/h
1134 29-05-2015 09:30:00 13.9 C 8.15 g/m*3 13.9 C 6.4 km/h
1135 29-05-2015 09:35:00 14.1 C 8.37 g/m*3 14.1 C 8.1 km/h
1136 29-05-2015 09:40:00 14.2 C 8.3 g/m*3 14.2 C 6.4 km/h
1137 29-05-2015 09:45:00 14.1 C 8.37 g/m*3 14.1 C 11.3 km/h
1138 29-05-2015 09:50:00 13.8 C 8.22 g/m*3 13.8 C 9.7 km/h
1139 29-05-2015 09:55:00 13.7 C 8.29 g/m*3 13.7 C 8.1 km/h
1140 29-05-2015 10:00:00 13.6 C 8.12 g/m*3 13.6 C 9.7 km/h
1141 29-05-2015 10:05:00 13.5 C 8.19 g/m*3 13.5 C 3.2 km/h
1142 29-05-2015 10:10:00 13.4 C 8.14 g/m*3 13.4 C 9.7 km/h
1143 29-05-2015 10:15:00 13.3 C 8.43 g/m*3 13.3 C 8.1 km/h
1144 29-05-2015 10:20:00 13.2 C 8.73 g/m*3 13.2 C 0 km/h
1145 29-05-2015 10:25:00 13.1 C 8.56 g/m*3 13.1 C 1.6 km/h
1146 29-05-2015 10:30:00 13 C 8.51 g/m*3 13 C 1.6 km/h
1147 29-05-2015 10:35:00 13.1 C 8.56 g/m*3 13.1 C 4.8 km/h
1148 29-05-2015 10:40:00 13.1 C 8.56 g/m*3 13.1 C 3.2 km/h
1149 29-05-2015 10:45:00 13.3 C 8.55 g/m*3 13.3 C 8.1 km/h
1150 29-05-2015 10:50:00 13.4 C 8.37 g/m*3 13.4 C 11.3 km/h
Sensor: Nr:Datum:Temp:Abs-Feuchte:Windchill:Wind:
Aussen-T/F 1151 29-05-2015 10:55:00 13.5 C 8.42 g/m*3 13.5 C 9.7 km/h
1152 29-05-2015 11:00:00 13.6 C 8.59 g/m*3 13.6 C 1.6 km/h
1153 29-05-2015 11:05:00 13.7 C 8.53 g/m*3 13.7 C 1.6 km/h
1154 29-05-2015 11:10:00 13.9 C 8.51 g/m*3 13.9 C 4.8 km/h
1155 29-05-2015 11:15:00 13.9 C 8.51 g/m*3 13.9 C 3.2 km/h
1156 29-05-2015 11:20:00 14.1 C 8.62 g/m*3 14.1 C 1.6 km/h
1157 29-05-2015 11:25:00 14.1 C 8.74 g/m*3 14.1 C 1.6 km/h
1158 29-05-2015 11:30:00 14.2 C 8.55 g/m*3 14.2 C 4.8 km/h
1159 29-05-2015 11:35:00 14.4 C 8.53 g/m*3 14.4 C 6.4 km/h
1160 29-05-2015 11:40:00 14.7 C 8.69 g/m*3 14.7 C 3.2 km/h
1161 29-05-2015 11:45:00 15 C 8.72 g/m*3 15 C 3.2 km/h
1162 29-05-2015 11:50:00 15.2 C 8.7 g/m*3 15.2 C 8.1 km/h
1163 29-05-2015 11:55:00 15.3 C 8.49 g/m*3 15.3 C 8.1 km/h
1164 29-05-2015 12:00:00 15.5 C 8.72 g/m*3 15.5 C 3.2 km/h
1165 29-05-2015 12:05:00 15.6 C 8.78 g/m*3 15.6 C 3.2 km/h
1166 29-05-2015 12:10:00 15.6 C 8.78 g/m*3 15.6 C 6.4 km/h
1167 29-05-2015 12:15:00 15.6 C 8.78 g/m*3 15.6 C 6.4 km/h
1168 29-05-2015 12:20:00 15.7 C 8.83 g/m*3 15.7 C 4.8 km/h
1169 29-05-2015 12:25:00 15.9 C 8.94 g/m*3 15.9 C 4.8 km/h
1170 29-05-2015 12:30:00 15.8 C 9.42 g/m*3 15.8 C 6.4 km/h
1171 29-05-2015 12:35:00 15.6 C 9.44 g/m*3 15.6 C 6.4 km/h
1172 29-05-2015 12:40:00 15.3 C 9.53 g/m*3 15.3 C 4.8 km/h
1173 29-05-2015 12:45:00 15.3 C 9.92 g/m*3 15.3 C 8.1 km/h
1174 29-05-2015 12:50:00 15.7 C 10.03 g/m*3 15.7 C 9.7 km/h
1175 29-05-2015 12:55:00 16.1 C 10.28 g/m*3 16.1 C 8.1 km/h
Sensor: Nr:Datum:Temp:Abs-Feuchte:Windchill:Wind:
Aussen-T/F 1176 29-05-2015 13:00:00 16.3 C 10.13 g/m*3 16.3 C 9.7 km/h
1177 29-05-2015 13:05:00 16.5 C 9.83 g/m*3 16.5 C 8.1 km/h
1178 29-05-2015 13:10:00 16.6 C 9.46 g/m*3 16.6 C 12.9 km/h
1179 29-05-2015 13:15:00 16.4 C 9.49 g/m*3 16.4 C 9.7 km/h
1180 29-05-2015 13:20:00 16.3 C 9.43 g/m*3 16.3 C 11.3 km/h
1181 29-05-2015 13:25:00 16.1 C 9.46 g/m*3 16.1 C 11.3 km/h
1182 29-05-2015 13:30:00 15.8 C 9.42 g/m*3 15.8 C 8.1 km/h
1183 29-05-2015 13:35:00 15.4 C 9.2 g/m*3 15.4 C 8.1 km/h
1184 29-05-2015 13:40:00 15.1 C 9.29 g/m*3 15.1 C 8.1 km/h
1185 29-05-2015 13:45:00 14.8 C 9.12 g/m*3 14.8 C 8.1 km/h
1186 29-05-2015 13:50:00 14.7 C 9.19 g/m*3 14.7 C 3.2 km/h
1187 29-05-2015 13:55:00 14.6 C 9.13 g/m*3 14.6 C 4.8 km/h
1188 29-05-2015 14:00:00 14.6 C 9.01 g/m*3 14.6 C 9.7 km/h
1189 29-05-2015 14:05:00 14.6 C 9.13 g/m*3 14.6 C 11.3 km/h
1190 29-05-2015 14:10:00 14.7 C 9.44 g/m*3 14.7 C 8.1 km/h
1191 29-05-2015 14:15:00 14.8 C 9.5 g/m*3 14.8 C 6.4 km/h
1192 29-05-2015 14:20:00 14.9 C 9.56 g/m*3 14.9 C 9.7 km/h
1193 29-05-2015 14:25:00 14.8 C 9.5 g/m*3 14.8 C 6.4 km/h
1194 29-05-2015 14:30:00 14.7 C 9.69 g/m*3 14.7 C 6.4 km/h
1195 29-05-2015 14:35:00 14.5 C 9.95 g/m*3 14.5 C 3.2 km/h
1196 29-05-2015 14:40:00 14.3 C 10.07 g/m*3 14.3 C 1.6 km/h
1197 29-05-2015 14:45:00 14.1 C 9.95 g/m*3 14.1 C 0 km/h
1198 29-05-2015 14:50:00 14.1 C 9.95 g/m*3 14.1 C 3.2 km/h
1199 29-05-2015 15:30:00 13.6 C 10.47 g/m*3 13.6 C 1.6 km/h
1200 29-05-2015 15:35:00 13.6 C 10.47 g/m*3 13.6 C 0 km/h
Sensor: Nr:Datum:Temp:Abs-Feuchte:Windchill:Wind:
Aussen-T/F 1201 29-05-2015 15:40:00 13.6 C 10.47 g/m*3 13.6 C 0 km/h
1202 29-05-2015 15:45:00 13.7 C 10.54 g/m*3 13.7 C 1.6 km/h
1203 29-05-2015 15:50:00 13.7 C 10.54 g/m*3 13.7 C 1.6 km/h
1204 29-05-2015 15:55:00 13.8 C 10.6 g/m*3 13.8 C 4.8 km/h
1205 29-05-2015 16:00:00 13.8 C 10.48 g/m*3 13.8 C 6.4 km/h
1206 29-05-2015 16:05:00 13.9 C 10.55 g/m*3 13.9 C 6.4 km/h
1207 29-05-2015 16:10:00 14.2 C 10.75 g/m*3 14.2 C 8.1 km/h
1208 29-05-2015 16:15:00 14.5 C 10.94 g/m*3 14.5 C 8.1 km/h
1209 29-05-2015 16:20:00 14.7 C 10.7 g/m*3 14.7 C 9.7 km/h
1210 29-05-2015 16:25:00 14.6 C 10.51 g/m*3 14.6 C 14.5 km/h
1211 29-05-2015 16:30:00 14.5 C 10.57 g/m*3 14.5 C 8.1 km/h
1212 29-05-2015 16:35:00 14.4 C 10.51 g/m*3 14.4 C 11.3 km/h
1213 29-05-2015 16:40:00 14.3 C 10.44 g/m*3 14.3 C 9.7 km/h
1214 29-05-2015 16:45:00 14.3 C 10.44 g/m*3 14.3 C 3.2 km/h
1215 29-05-2015 16:50:00 14.3 C 10.57 g/m*3 14.3 C 4.8 km/h
1216 29-05-2015 16:55:00 14.3 C 10.57 g/m*3 14.3 C 3.2 km/h
1217 29-05-2015 17:00:00 14.4 C 10.63 g/m*3 14.4 C 8.1 km/h
1218 29-05-2015 17:05:00 14.4 C 10.51 g/m*3 14.4 C 4.8 km/h
1219 29-05-2015 17:10:00 14.7 C 10.83 g/m*3 14.7 C 9.7 km/h
1220 29-05-2015 17:15:00 15.1 C 10.84 g/m*3 15.1 C 6.4 km/h
1221 29-05-2015 17:20:00 15.3 C 10.58 g/m*3 15.3 C 11.3 km/h
1222 29-05-2015 17:25:00 15.5 C 10.71 g/m*3 15.5 C 11.3 km/h
1223 29-05-2015 17:30:00 15.7 C 10.84 g/m*3 15.7 C 11.3 km/h
1224 29-05-2015 17:35:00 15.9 C 10.83 g/m*3 15.9 C 9.7 km/h
1225 29-05-2015 17:40:00 16.2 C 10.89 g/m*3 16.2 C 6.4 km/h
Sensor: Nr:Datum:Temp:Abs-Feuchte:Windchill:Wind:
Aussen-T/F 1226 29-05-2015 17:45:00 16.2 C 10.48 g/m*3 16.2 C 17.7 km/h
1227 29-05-2015 17:50:00 16.1 C 10.42 g/m*3 16.1 C 17.7 km/h
1228 29-05-2015 17:55:00 16.1 C 10.55 g/m*3 16.1 C 9.7 km/h
1229 29-05-2015 18:00:00 16.2 C 10.62 g/m*3 16.2 C 11.3 km/h
1230 29-05-2015 18:05:00 16.3 C 10.41 g/m*3 16.3 C 17.7 km/h
1231 29-05-2015 18:10:00 16.5 C 10.39 g/m*3 16.5 C 17.7 km/h
1232 29-05-2015 18:15:00 16.8 C 10.58 g/m*3 16.8 C 12.9 km/h
1233 29-05-2015 18:20:00 16.6 C 10.17 g/m*3 16.6 C 12.9 km/h
1234 29-05-2015 18:25:00 16.5 C 10.11 g/m*3 16.5 C 14.5 km/h
1235 29-05-2015 18:30:00 16.4 C 9.91 g/m*3 16.4 C 19.3 km/h
1236 29-05-2015 18:35:00 16.2 C 10.07 g/m*3 16.2 C 19.3 km/h
1237 29-05-2015 18:40:00 16.1 C 10.01 g/m*3 16.1 C 9.7 km/h
1238 29-05-2015 18:45:00 16.2 C 10.07 g/m*3 16.2 C 11.3 km/h
1239 29-05-2015 18:50:00 16.3 C 9.99 g/m*3 16.3 C 11.3 km/h
1240 29-05-2015 18:55:00 16.1 C 10.01 g/m*3 16.1 C 3.2 km/h
1241 29-05-2015 19:00:00 16.1 C 10.01 g/m*3 16.1 C 3.2 km/h
1242 29-05-2015 19:05:00 15.9 C 9.75 g/m*3 15.9 C 9.7 km/h
1243 29-05-2015 19:10:00 15.8 C 9.56 g/m*3 15.8 C 9.7 km/h
1244 29-05-2015 19:15:00 15.8 C 9.42 g/m*3 15.8 C 17.7 km/h
1245 29-05-2015 19:20:00 16.1 C 9.46 g/m*3 16.1 C 11.3 km/h
1246 29-05-2015 19:25:00 16.3 C 9.3 g/m*3 16.3 C 9.7 km/h
1247 29-05-2015 19:30:00 16.4 C 9.21 g/m*3 16.4 C 14.5 km/h
1248 29-05-2015 19:35:00 16.2 C 8.83 g/m*3 16.2 C 19.3 km/h
1249 29-05-2015 19:40:00 16.1 C 8.91 g/m*3 16.1 C 14.5 km/h
1250 29-05-2015 19:45:00 16.1 C 9.05 g/m*3 16.1 C 4.8 km/h
Sensor: Nr:Datum:Temp:Abs-Feuchte:Windchill:Wind:
Aussen-T/F 1251 29-05-2015 19:50:00 16 C 8.72 g/m*3 16 C 11.3 km/h
1252 29-05-2015 19:55:00 15.8 C 8.62 g/m*3 15.8 C 8.1 km/h
1253 29-05-2015 20:00:00 15.8 C 8.62 g/m*3 15.8 C 16.1 km/h
1254 29-05-2015 20:05:00 15.7 C 8.56 g/m*3 15.7 C 12.9 km/h
1255 29-05-2015 20:10:00 15.5 C 8.46 g/m*3 15.5 C 11.3 km/h
1256 29-05-2015 20:15:00 15.3 C 8.49 g/m*3 15.3 C 11.3 km/h
1257 29-05-2015 20:20:00 15.3 C 8.62 g/m*3 15.3 C 8.1 km/h
1258 29-05-2015 20:25:00 15.3 C 8.62 g/m*3 15.3 C 6.4 km/h
1259 29-05-2015 20:30:00 15.2 C 8.7 g/m*3 15.2 C 3.2 km/h
1260 29-05-2015 20:35:00 15.1 C 8.77 g/m*3 15.1 C 1.6 km/h
1261 29-05-2015 20:40:00 15 C 8.72 g/m*3 15 C 11.3 km/h
1262 29-05-2015 20:45:00 14.9 C 8.67 g/m*3 14.9 C 12.9 km/h
1263 29-05-2015 20:50:00 14.9 C 8.67 g/m*3 14.9 C 6.4 km/h
1264 29-05-2015 20:55:00 14.9 C 8.54 g/m*3 14.9 C 9.7 km/h
1265 29-05-2015 21:00:00 14.9 C 8.67 g/m*3 14.9 C 6.4 km/h
1266 29-05-2015 21:05:00 14.9 C 8.54 g/m*3 14.9 C 12.9 km/h
1267 29-05-2015 21:10:00 14.9 C 8.54 g/m*3 14.9 C 6.4 km/h
1268 29-05-2015 21:15:00 14.8 C 8.49 g/m*3 14.8 C 4.8 km/h
1269 29-05-2015 21:20:00 14.8 C 8.49 g/m*3 14.8 C 3.2 km/h
1270 29-05-2015 21:25:00 14.8 C 8.36 g/m*3 14.8 C 3.2 km/h
1271 29-05-2015 21:30:00 14.8 C 8.49 g/m*3 14.8 C 11.3 km/h
1272 29-05-2015 21:35:00 14.8 C 8.36 g/m*3 14.8 C 9.7 km/h
1273 29-05-2015 21:40:00 14.8 C 8.36 g/m*3 14.8 C 11.3 km/h
1274 29-05-2015 21:45:00 14.7 C 8.18 g/m*3 14.7 C 9.7 km/h
1275 29-05-2015 21:50:00 14.7 C 8.31 g/m*3 14.7 C 4.8 km/h
Sensor: Nr:Datum:Temp:Abs-Feuchte:Windchill:Wind:
Aussen-T/F 1276 29-05-2015 21:55:00 14.7 C 8.18 g/m*3 14.7 C 11.3 km/h
1277 29-05-2015 22:00:00 14.6 C 8.26 g/m*3 14.6 C 8.1 km/h
1278 29-05-2015 22:05:00 14.6 C 8.26 g/m*3 14.6 C 3.2 km/h
1279 29-05-2015 22:10:00 14.5 C 8.08 g/m*3 14.5 C 3.2 km/h
1280 29-05-2015 22:15:00 14.5 C 8.21 g/m*3 14.5 C 6.4 km/h
1281 29-05-2015 22:20:00 14.4 C 8.16 g/m*3 14.4 C 8.1 km/h
1282 29-05-2015 22:25:00 14.4 C 8.03 g/m*3 14.4 C 8.1 km/h
1283 29-05-2015 22:30:00 14.4 C 8.28 g/m*3 14.4 C 3.2 km/h
1284 29-05-2015 22:35:00 14.3 C 7.99 g/m*3 14.3 C 3.2 km/h
1285 29-05-2015 22:40:00 14.3 C 7.99 g/m*3 14.3 C 4.8 km/h
1286 29-05-2015 22:45:00 14.3 C 8.11 g/m*3 14.3 C 3.2 km/h
1287 29-05-2015 22:50:00 14.3 C 8.35 g/m*3 14.3 C 3.2 km/h
1288 29-05-2015 22:55:00 14.2 C 8.18 g/m*3 14.2 C 0 km/h
1289 29-05-2015 23:00:00 14.2 C 8.43 g/m*3 14.2 C 1.6 km/h
1290 29-05-2015 23:05:00 14.1 C 8.74 g/m*3 14.1 C 3.2 km/h
1291 29-05-2015 23:10:00 13.9 C 8.39 g/m*3 13.9 C 0 km/h
1292 29-05-2015 23:15:00 13.8 C 8.7 g/m*3 13.8 C 1.6 km/h
1293 29-05-2015 23:20:00 13.8 C 8.1 g/m*3 13.8 C 1.6 km/h
1294 29-05-2015 23:25:00 14.1 C 8.13 g/m*3 14.1 C 6.4 km/h
1295 29-05-2015 23:30:00 14.2 C 8.3 g/m*3 14.2 C 6.4 km/h
1296 29-05-2015 23:35:00 14.2 C 8.55 g/m*3 14.2 C 0 km/h
1297 29-05-2015 23:40:00 14 C 8.44 g/m*3 14 C 3.2 km/h
1298 29-05-2015 23:45:00 13.8 C 8.7 g/m*3 13.8 C 0 km/h
1299 29-05-2015 23:50:00 13.7 C 8.76 g/m*3 13.7 C 0 km/h
1300 29-05-2015 23:55:00 13.6 C 8.36 g/m*3 13.6 C 1.6 km/h

Legende:
   Min
   Max


Maximal/Minimal-Werte vom 25.05.2015 - 29.05.2015

Sensor Min Max Avg
Temp
(Aussen-T/F)
6.3 °C
27-05-2015  03:15:00
21.4 °C
28-05-2015  13:20:00
12.88 °C
Abs-Feuchte
(Aussen-T/F)
6.28 g/m*3
27-05-2015  11:50:00
13.14 g/m*3
25-05-2015  14:00:00
8.31 g/m*3
Windchill
(Aussen-T/F)
5.67 C
27-05-2015  04:45:00
21.4 C
28-05-2015  13:20:00
12.85 C

Die Daten stammen von einer Davis Vantage Pro 2 Wetter-Station und werden unter Linux mit der Software wview2wettercgi und aufbereitet. Alle Angaben erfolgen ohne Gewähr für ihre Vollständigkeit oder Richtigkeit.
Kontakt: Rainer Krienke krienke@uni-koblenz.de . Meine Webseiten an der Uni Koblenz oder privat.
Version: $Revision: 0.78 $